<?xml version='1.0' encoding='UTF-8'?><gpx version="1.1" creator="JPX - https://github.com/jenetics/jpx" xmlns="http://www.topografix.com/GPX/1/1"><trk><trkseg><trkpt lat="42.1023413" lon="13.8742566"><ele>299.0</ele><time>2026-04-14T09:07:53.294Z</time></trkpt><trkpt lat="42.1022831" lon="13.8741971"><ele>299.0</ele><time>2026-04-14T09:07:57.296Z</time></trkpt><trkpt lat="42.1022055" lon="13.8741232"><ele>299.0</ele><time>2026-04-14T09:08:01.296Z</time></trkpt><trkpt lat="42.1021323" lon="13.8740869"><ele>299.0</ele><time>2026-04-14T09:08:05.295Z</time></trkpt><trkpt lat="42.1020737" lon="13.8740483"><ele>299.0</ele><time>2026-04-14T09:08:09.334Z</time></trkpt><trkpt lat="42.1020036" lon="13.8740241"><ele>299.0</ele><time>2026-04-14T09:08:14.315Z</time></trkpt><trkpt lat="42.1019367" lon="13.874004"><ele>299.0</ele><time>2026-04-14T09:08:19.354Z</time></trkpt><trkpt lat="42.1018725" lon="13.8740015"><ele>299.0</ele><time>2026-04-14T09:08:25.296Z</time></trkpt><trkpt lat="42.1018082" lon="13.8739947"><ele>299.0</ele><time>2026-04-14T09:08:30.296Z</time></trkpt><trkpt lat="42.1017351" lon="13.8739843"><ele>299.0</ele><time>2026-04-14T09:08:36.296Z</time></trkpt><trkpt lat="42.1016704" lon="13.8739552"><ele>299.0</ele><time>2026-04-14T09:08:40.295Z</time></trkpt><trkpt lat="42.1016066" lon="13.8739326"><ele>299.0</ele><time>2026-04-14T09:08:45.295Z</time></trkpt><trkpt lat="42.1015301" lon="13.8739305"><ele>299.0</ele><time>2026-04-14T09:08:51.378Z</time></trkpt><trkpt lat="42.1014674" lon="13.8739565"><ele>300.57142857142856</ele><time>2026-04-14T09:08:59.475Z</time></trkpt><trkpt lat="42.1014007" lon="13.8739642"><ele>302.14285714285717</ele><time>2026-04-14T09:09:06.296Z</time></trkpt><trkpt lat="42.1013455" lon="13.8739222"><ele>303.7142857142857</ele><time>2026-04-14T09:09:10.296Z</time></trkpt><trkpt lat="42.1012704" lon="13.87393"><ele>305.2857142857143</ele><time>2026-04-14T09:09:15.314Z</time></trkpt><trkpt lat="42.1011914" lon="13.8739114"><ele>306.85714285714283</ele><time>2026-04-14T09:09:20.296Z</time></trkpt><trkpt lat="42.1011027" lon="13.8739106"><ele>308.42857142857144</ele><time>2026-04-14T09:09:28.296Z</time></trkpt><trkpt lat="42.1010344" lon="13.8739154"><ele>310.0</ele><time>2026-04-14T09:09:35.296Z</time></trkpt><trkpt lat="42.1009716" lon="13.8739072"><ele>310.0</ele><time>2026-04-14T09:09:38.296Z</time></trkpt><trkpt lat="42.1009135" lon="13.8738461"><ele>310.0</ele><time>2026-04-14T09:09:44.295Z</time></trkpt><trkpt lat="42.1009245" lon="13.8737468"><ele>310.0</ele><time>2026-04-14T09:09:47.295Z</time></trkpt><trkpt lat="42.1009117" lon="13.8736481"><ele>310.0</ele><time>2026-04-14T09:09:53.306Z</time></trkpt><trkpt lat="42.1008864" lon="13.8735538"><ele>310.0</ele><time>2026-04-14T09:09:58.257Z</time></trkpt><trkpt lat="42.1008634" lon="13.8734608"><ele>310.0</ele><time>2026-04-14T09:10:03.365Z</time></trkpt><trkpt lat="42.1008385" lon="13.8733813"><ele>310.0</ele><time>2026-04-14T09:10:08.303Z</time></trkpt><trkpt lat="42.1008217" lon="13.8732778"><ele>309.14285714285717</ele><time>2026-04-14T09:10:15.353Z</time></trkpt><trkpt lat="42.1008067" lon="13.8731912"><ele>308.2857142857143</ele><time>2026-04-14T09:10:19.365Z</time></trkpt><trkpt lat="42.1007994" lon="13.8730984"><ele>307.42857142857144</ele><time>2026-04-14T09:10:27.295Z</time></trkpt><trkpt lat="42.1007872" lon="13.8730062"><ele>306.57142857142856</ele><time>2026-04-14T09:10:30.262Z</time></trkpt><trkpt lat="42.1007772" lon="13.8729116"><ele>305.7142857142857</ele><time>2026-04-14T09:10:39.296Z</time></trkpt><trkpt lat="42.1007772" lon="13.8728073"><ele>304.85714285714283</ele><time>2026-04-14T09:10:41.296Z</time></trkpt><trkpt lat="42.1007743" lon="13.8727205"><ele>304.0</ele><time>2026-04-14T09:10:45.383Z</time></trkpt><trkpt lat="42.100774" lon="13.8726059"><ele>303.2857142857143</ele><time>2026-04-14T09:10:51.377Z</time></trkpt><trkpt lat="42.1007542" lon="13.8725219"><ele>302.5714285714286</ele><time>2026-04-14T09:10:56.296Z</time></trkpt><trkpt lat="42.1007373" lon="13.8724355"><ele>301.8571428571429</ele><time>2026-04-14T09:11:01.295Z</time></trkpt><trkpt lat="42.1007809" lon="13.8723265"><ele>301.1428571428571</ele><time>2026-04-14T09:11:37.28Z</time></trkpt><trkpt lat="42.1008175" lon="13.8722559"><ele>300.42857142857144</ele><time>2026-04-14T09:11:41.296Z</time></trkpt><trkpt lat="42.1008412" lon="13.8721767"><ele>299.7142857142857</ele><time>2026-04-14T09:11:44.88Z</time></trkpt><trkpt lat="42.1008546" lon="13.8720878"><ele>299.0</ele><time>2026-04-14T09:11:51.256Z</time></trkpt><trkpt lat="42.1007891" lon="13.8720243"><ele>299.0</ele><time>2026-04-14T09:11:55.309Z</time></trkpt><trkpt lat="42.1007321" lon="13.8719838"><ele>299.0</ele><time>2026-04-14T09:11:59.295Z</time></trkpt><trkpt lat="42.1006749" lon="13.8719392"><ele>299.0</ele><time>2026-04-14T09:12:05.296Z</time></trkpt><trkpt lat="42.1006234" lon="13.8718571"><ele>299.0</ele><time>2026-04-14T09:12:11.295Z</time></trkpt><trkpt lat="42.1005672" lon="13.8717782"><ele>299.0</ele><time>2026-04-14T09:12:15.296Z</time></trkpt><trkpt lat="42.1005027" lon="13.8717273"><ele>299.0</ele><time>2026-04-14T09:12:19.295Z</time></trkpt><trkpt lat="42.1004369" lon="13.8716903"><ele>299.0</ele><time>2026-04-14T09:12:24.368Z</time></trkpt><trkpt lat="42.10038" lon="13.8716474"><ele>298.57142857142856</ele><time>2026-04-14T09:12:30.31Z</time></trkpt><trkpt lat="42.1003214" lon="13.8716097"><ele>298.14285714285717</ele><time>2026-04-14T09:12:34.391Z</time></trkpt><trkpt lat="42.1002603" lon="13.8715835"><ele>297.7142857142857</ele><time>2026-04-14T09:12:38.28Z</time></trkpt><trkpt lat="42.100194" lon="13.8715596"><ele>297.2857142857143</ele><time>2026-04-14T09:12:42.299Z</time></trkpt><trkpt lat="42.1001267" lon="13.8715249"><ele>296.85714285714283</ele><time>2026-04-14T09:12:48.296Z</time></trkpt><trkpt lat="42.1000621" lon="13.8714948"><ele>296.42857142857144</ele><time>2026-04-14T09:12:53.296Z</time></trkpt><trkpt lat="42.0999789" lon="13.8714472"><ele>296.0</ele><time>2026-04-14T09:12:58.347Z</time></trkpt><trkpt lat="42.0999076" lon="13.8714132"><ele>296.0</ele><time>2026-04-14T09:13:05.296Z</time></trkpt><trkpt lat="42.0998372" lon="13.8713902"><ele>296.0</ele><time>2026-04-14T09:13:10.343Z</time></trkpt><trkpt lat="42.0997564" lon="13.8713631"><ele>296.0</ele><time>2026-04-14T09:13:16.36Z</time></trkpt><trkpt lat="42.0996802" lon="13.8713708"><ele>296.0</ele><time>2026-04-14T09:13:23.296Z</time></trkpt><trkpt lat="42.0996136" lon="13.8713669"><ele>296.0</ele><time>2026-04-14T09:13:27.388Z</time></trkpt><trkpt lat="42.0995447" lon="13.8713812"><ele>296.0</ele><time>2026-04-14T09:13:32.296Z</time></trkpt><trkpt lat="42.0994772" lon="13.8713909"><ele>296.0</ele><time>2026-04-14T09:13:36.354Z</time></trkpt><trkpt lat="42.0994109" lon="13.8714113"><ele>296.0</ele><time>2026-04-14T09:13:43.398Z</time></trkpt><trkpt lat="42.0993435" lon="13.8714416"><ele>296.0</ele><time>2026-04-14T09:13:48.296Z</time></trkpt><trkpt lat="42.0992506" lon="13.8714878"><ele>296.0</ele><time>2026-04-14T09:13:53.361Z</time></trkpt><trkpt lat="42.0991889" lon="13.8715097"><ele>296.0</ele><time>2026-04-14T09:13:57.306Z</time></trkpt><trkpt lat="42.0991206" lon="13.8715243"><ele>296.0</ele><time>2026-04-14T09:14:02.295Z</time></trkpt><trkpt lat="42.0990483" lon="13.8715553"><ele>296.0</ele><time>2026-04-14T09:14:07.355Z</time></trkpt><trkpt lat="42.0989729" lon="13.8716028"><ele>296.42857142857144</ele><time>2026-04-14T09:14:12.303Z</time></trkpt><trkpt lat="42.0989108" lon="13.871618"><ele>296.85714285714283</ele><time>2026-04-14T09:14:16.37Z</time></trkpt><trkpt lat="42.0988324" lon="13.8716734"><ele>297.2857142857143</ele><time>2026-04-14T09:14:25.219Z</time></trkpt><trkpt lat="42.0987658" lon="13.8716866"><ele>297.7142857142857</ele><time>2026-04-14T09:14:29.296Z</time></trkpt><trkpt lat="42.0986961" lon="13.8716924"><ele>298.14285714285717</ele><time>2026-04-14T09:14:34.296Z</time></trkpt><trkpt lat="42.0986318" lon="13.8716904"><ele>298.57142857142856</ele><time>2026-04-14T09:14:39.295Z</time></trkpt><trkpt lat="42.0985581" lon="13.8716858"><ele>299.0</ele><time>2026-04-14T09:14:45.296Z</time></trkpt><trkpt lat="42.0984907" lon="13.8716803"><ele>299.0</ele><time>2026-04-14T09:14:51.295Z</time></trkpt><trkpt lat="42.0984246" lon="13.8716736"><ele>299.0</ele><time>2026-04-14T09:14:57.295Z</time></trkpt><trkpt lat="42.0983572" lon="13.8716728"><ele>299.0</ele><time>2026-04-14T09:15:03.296Z</time></trkpt><trkpt lat="42.0982934" lon="13.8716681"><ele>299.0</ele><time>2026-04-14T09:15:08.296Z</time></trkpt><trkpt lat="42.0982283" lon="13.8716816"><ele>299.0</ele><time>2026-04-14T09:15:13.275Z</time></trkpt><trkpt lat="42.0981586" lon="13.8716682"><ele>299.0</ele><time>2026-04-14T09:15:19.309Z</time></trkpt><trkpt lat="42.0980881" lon="13.8716472"><ele>299.0</ele><time>2026-04-14T09:15:24.296Z</time></trkpt><trkpt lat="42.0980204" lon="13.8716619"><ele>299.33333333333337</ele><time>2026-04-14T09:15:30.296Z</time></trkpt><trkpt lat="42.0979507" lon="13.8716438"><ele>299.6666666666667</ele><time>2026-04-14T09:15:33.296Z</time></trkpt><trkpt lat="42.0978816" lon="13.871623"><ele>300.0</ele><time>2026-04-14T09:15:38.352Z</time></trkpt><trkpt lat="42.0978182" lon="13.8715687"><ele>300.3333333333333</ele><time>2026-04-14T09:15:43.303Z</time></trkpt><trkpt lat="42.0977703" lon="13.8714953"><ele>300.66666666666663</ele><time>2026-04-14T09:15:48.296Z</time></trkpt><trkpt lat="42.0977154" lon="13.8714315"><ele>301.0</ele><time>2026-04-14T09:15:54.296Z</time></trkpt><trkpt lat="42.0976431" lon="13.8713598"><ele>301.0</ele><time>2026-04-14T09:15:59.378Z</time></trkpt><trkpt lat="42.097588" lon="13.8712946"><ele>301.0</ele><time>2026-04-14T09:16:04.299Z</time></trkpt><trkpt lat="42.097529" lon="13.8712108"><ele>301.0</ele><time>2026-04-14T09:16:08.295Z</time></trkpt><trkpt lat="42.0974754" lon="13.871136"><ele>301.0</ele><time>2026-04-14T09:16:13.337Z</time></trkpt><trkpt lat="42.0974246" lon="13.8710677"><ele>301.0</ele><time>2026-04-14T09:16:18.339Z</time></trkpt><trkpt lat="42.0973877" lon="13.8709869"><ele>301.0</ele><time>2026-04-14T09:16:23.379Z</time></trkpt><trkpt lat="42.0973445" lon="13.8709"><ele>301.14285714285717</ele><time>2026-04-14T09:16:28.295Z</time></trkpt><trkpt lat="42.097291" lon="13.8708185"><ele>301.2857142857143</ele><time>2026-04-14T09:16:35.301Z</time></trkpt><trkpt lat="42.0972415" lon="13.8707571"><ele>301.42857142857144</ele><time>2026-04-14T09:16:39.386Z</time></trkpt><trkpt lat="42.0971868" lon="13.8707058"><ele>301.57142857142856</ele><time>2026-04-14T09:16:45.397Z</time></trkpt><trkpt lat="42.0971457" lon="13.8706369"><ele>301.7142857142857</ele><time>2026-04-14T09:16:49.295Z</time></trkpt><trkpt lat="42.0971001" lon="13.8705676"><ele>301.8571428571429</ele><time>2026-04-14T09:16:53.296Z</time></trkpt><trkpt lat="42.0970515" lon="13.8705058"><ele>302.0</ele><time>2026-04-14T09:16:58.233Z</time></trkpt><trkpt lat="42.0970133" lon="13.8704295"><ele>302.00000000000006</ele><time>2026-04-14T09:17:04.76Z</time></trkpt><trkpt lat="42.0969739" lon="13.8703527"><ele>302.0</ele><time>2026-04-14T09:17:10.295Z</time></trkpt><trkpt lat="42.0969328" lon="13.8702572"><ele>302.0</ele><time>2026-04-14T09:17:16.295Z</time></trkpt><trkpt lat="42.0968954" lon="13.8701858"><ele>302.0</ele><time>2026-04-14T09:17:21.296Z</time></trkpt><trkpt lat="42.0968556" lon="13.870104"><ele>302.0</ele><time>2026-04-14T09:17:26.296Z</time></trkpt><trkpt lat="42.0968215" lon="13.8700197"><ele>302.00000000000006</ele><time>2026-04-14T09:17:31.296Z</time></trkpt><trkpt lat="42.0967942" lon="13.8699292"><ele>302.0</ele><time>2026-04-14T09:17:36.348Z</time></trkpt><trkpt lat="42.0967515" lon="13.8698567"><ele>302.14285714285717</ele><time>2026-04-14T09:17:41.334Z</time></trkpt><trkpt lat="42.0967033" lon="13.8697888"><ele>302.2857142857143</ele><time>2026-04-14T09:17:46.295Z</time></trkpt><trkpt lat="42.0966539" lon="13.8697117"><ele>302.42857142857144</ele><time>2026-04-14T09:17:51.307Z</time></trkpt><trkpt lat="42.0966119" lon="13.8696317"><ele>302.57142857142856</ele><time>2026-04-14T09:17:56.296Z</time></trkpt><trkpt lat="42.0965768" lon="13.8695539"><ele>302.7142857142857</ele><time>2026-04-14T09:18:01.296Z</time></trkpt><trkpt lat="42.0965154" lon="13.8694877"><ele>302.8571428571429</ele><time>2026-04-14T09:18:06.295Z</time></trkpt><trkpt lat="42.0964597" lon="13.8694368"><ele>303.0</ele><time>2026-04-14T09:18:12.295Z</time></trkpt><trkpt lat="42.0964151" lon="13.8693572"><ele>303.2857142857143</ele><time>2026-04-14T09:18:16.295Z</time></trkpt><trkpt lat="42.09638" lon="13.8692852"><ele>303.57142857142856</ele><time>2026-04-14T09:18:19.295Z</time></trkpt><trkpt lat="42.0963491" lon="13.8692064"><ele>303.8571428571429</ele><time>2026-04-14T09:18:23.22Z</time></trkpt><trkpt lat="42.0962958" lon="13.8691358"><ele>304.1428571428571</ele><time>2026-04-14T09:18:28.296Z</time></trkpt><trkpt lat="42.0962484" lon="13.869061"><ele>304.4285714285714</ele><time>2026-04-14T09:18:33.296Z</time></trkpt><trkpt lat="42.0962031" lon="13.8689963"><ele>304.7142857142857</ele><time>2026-04-14T09:18:38.252Z</time></trkpt><trkpt lat="42.0961552" lon="13.86894"><ele>305.0</ele><time>2026-04-14T09:18:43.366Z</time></trkpt><trkpt lat="42.096105" lon="13.8688846"><ele>305.14285714285717</ele><time>2026-04-14T09:18:47.375Z</time></trkpt><trkpt lat="42.0960539" lon="13.8688264"><ele>305.2857142857143</ele><time>2026-04-14T09:18:51.358Z</time></trkpt><trkpt lat="42.0959978" lon="13.8687727"><ele>305.42857142857144</ele><time>2026-04-14T09:18:55.355Z</time></trkpt><trkpt lat="42.0959507" lon="13.8687138"><ele>305.57142857142856</ele><time>2026-04-14T09:19:00.385Z</time></trkpt><trkpt lat="42.0958923" lon="13.8686502"><ele>305.7142857142857</ele><time>2026-04-14T09:19:05.278Z</time></trkpt><trkpt lat="42.0958322" lon="13.8685975"><ele>305.85714285714283</ele><time>2026-04-14T09:19:10.369Z</time></trkpt><trkpt lat="42.0957863" lon="13.8685388"><ele>306.0</ele><time>2026-04-14T09:19:15.364Z</time></trkpt><trkpt lat="42.0957372" lon="13.8684615"><ele>306.42857142857144</ele><time>2026-04-14T09:19:21.296Z</time></trkpt><trkpt lat="42.0956896" lon="13.8683914"><ele>306.8571428571429</ele><time>2026-04-14T09:19:26.364Z</time></trkpt><trkpt lat="42.0956463" lon="13.8683272"><ele>307.28571428571433</ele><time>2026-04-14T09:19:32.359Z</time></trkpt><trkpt lat="42.0956054" lon="13.8682566"><ele>307.7142857142857</ele><time>2026-04-14T09:19:37.296Z</time></trkpt><trkpt lat="42.0955639" lon="13.8681878"><ele>308.14285714285717</ele><time>2026-04-14T09:19:41.364Z</time></trkpt><trkpt lat="42.095514" lon="13.8681179"><ele>308.5714285714286</ele><time>2026-04-14T09:19:46.369Z</time></trkpt><trkpt lat="42.0954727" lon="13.8680535"><ele>309.0</ele><time>2026-04-14T09:19:52.367Z</time></trkpt><trkpt lat="42.0954331" lon="13.8679711"><ele>309.00000000000006</ele><time>2026-04-14T09:19:58.367Z</time></trkpt><trkpt lat="42.0953906" lon="13.8678655"><ele>309.0</ele><time>2026-04-14T09:20:05.355Z</time></trkpt><trkpt lat="42.0953575" lon="13.8677761"><ele>309.0</ele><time>2026-04-14T09:20:10.373Z</time></trkpt><trkpt lat="42.0953107" lon="13.8676876"><ele>309.0</ele><time>2026-04-14T09:20:15.296Z</time></trkpt><trkpt lat="42.0952896" lon="13.8675998"><ele>309.0</ele><time>2026-04-14T09:20:18.371Z</time></trkpt><trkpt lat="42.0952622" lon="13.8675188"><ele>309.00000000000006</ele><time>2026-04-14T09:20:23.382Z</time></trkpt><trkpt lat="42.0952245" lon="13.8674506"><ele>309.0</ele><time>2026-04-14T09:20:28.355Z</time></trkpt><trkpt lat="42.0951958" lon="13.8673723"><ele>309.14285714285717</ele><time>2026-04-14T09:20:31.416Z</time></trkpt><trkpt lat="42.0951643" lon="13.867272"><ele>309.2857142857143</ele><time>2026-04-14T09:20:35.372Z</time></trkpt><trkpt lat="42.09515" lon="13.8671835"><ele>309.42857142857144</ele><time>2026-04-14T09:20:39.384Z</time></trkpt><trkpt lat="42.0951367" lon="13.867083"><ele>309.57142857142856</ele><time>2026-04-14T09:20:45.295Z</time></trkpt><trkpt lat="42.0951163" lon="13.8669825"><ele>309.7142857142857</ele><time>2026-04-14T09:20:48.355Z</time></trkpt><trkpt lat="42.0950998" lon="13.8668936"><ele>309.8571428571429</ele><time>2026-04-14T09:20:52.295Z</time></trkpt><trkpt lat="42.095078" lon="13.8668063"><ele>310.0</ele><time>2026-04-14T09:20:56.375Z</time></trkpt><trkpt lat="42.095046" lon="13.866714"><ele>310.3333333333333</ele><time>2026-04-14T09:21:01.296Z</time></trkpt><trkpt lat="42.0950075" lon="13.8666371"><ele>310.66666666666663</ele><time>2026-04-14T09:21:06.37Z</time></trkpt><trkpt lat="42.0949389" lon="13.8666243"><ele>311.0</ele><time>2026-04-14T09:21:13.296Z</time></trkpt><trkpt lat="42.0948648" lon="13.8666211"><ele>311.3333333333333</ele><time>2026-04-14T09:21:17.379Z</time></trkpt><trkpt lat="42.0947858" lon="13.8666117"><ele>311.6666666666667</ele><time>2026-04-14T09:21:20.361Z</time></trkpt><trkpt lat="42.0947017" lon="13.8666254"><ele>312.0</ele><time>2026-04-14T09:21:24.296Z</time></trkpt><trkpt lat="42.0946281" lon="13.8666353"><ele>312.0</ele><time>2026-04-14T09:21:29.355Z</time></trkpt><trkpt lat="42.0945656" lon="13.8666599"><ele>312.0</ele><time>2026-04-14T09:21:36.213Z</time></trkpt><trkpt lat="42.0945024" lon="13.8666538"><ele>312.0</ele><time>2026-04-14T09:21:38.36Z</time></trkpt><trkpt lat="42.0944243" lon="13.8666764"><ele>312.0</ele><time>2026-04-14T09:21:43.058Z</time></trkpt><trkpt lat="42.0943628" lon="13.8667191"><ele>312.0</ele><time>2026-04-14T09:21:47.364Z</time></trkpt><trkpt lat="42.0942991" lon="13.8667666"><ele>312.0</ele><time>2026-04-14T09:21:52.295Z</time></trkpt><trkpt lat="42.0942363" lon="13.8667923"><ele>312.0</ele><time>2026-04-14T09:21:57.295Z</time></trkpt><trkpt lat="42.0941617" lon="13.8668011"><ele>312.0</ele><time>2026-04-14T09:22:02.359Z</time></trkpt><trkpt lat="42.0940948" lon="13.8668221"><ele>312.0</ele><time>2026-04-14T09:22:06.371Z</time></trkpt><trkpt lat="42.0940371" lon="13.8668636"><ele>312.0</ele><time>2026-04-14T09:22:11.296Z</time></trkpt><trkpt lat="42.0939769" lon="13.8669031"><ele>312.0</ele><time>2026-04-14T09:22:15.338Z</time></trkpt><trkpt lat="42.0939043" lon="13.8669352"><ele>312.0</ele><time>2026-04-14T09:22:23.364Z</time></trkpt><trkpt lat="42.0938351" lon="13.8669796"><ele>312.0</ele><time>2026-04-14T09:22:26.296Z</time></trkpt><trkpt lat="42.0937672" lon="13.8669935"><ele>312.0</ele><time>2026-04-14T09:22:30.381Z</time></trkpt><trkpt lat="42.0936882" lon="13.8670216"><ele>312.0</ele><time>2026-04-14T09:22:35.296Z</time></trkpt><trkpt lat="42.0936186" lon="13.8670527"><ele>312.0</ele><time>2026-04-14T09:22:39.364Z</time></trkpt><trkpt lat="42.0935434" lon="13.867086"><ele>312.0</ele><time>2026-04-14T09:22:44.295Z</time></trkpt><trkpt lat="42.0934763" lon="13.8671097"><ele>312.0</ele><time>2026-04-14T09:22:49.375Z</time></trkpt><trkpt lat="42.0933997" lon="13.8671398"><ele>312.0</ele><time>2026-04-14T09:22:54.296Z</time></trkpt><trkpt lat="42.0933347" lon="13.8671817"><ele>312.0</ele><time>2026-04-14T09:22:58.321Z</time></trkpt><trkpt lat="42.0932695" lon="13.8672073"><ele>312.0</ele><time>2026-04-14T09:23:02.296Z</time></trkpt><trkpt lat="42.0932008" lon="13.8672195"><ele>312.42857142857144</ele><time>2026-04-14T09:23:06.376Z</time></trkpt><trkpt lat="42.0931356" lon="13.8672291"><ele>312.85714285714283</ele><time>2026-04-14T09:23:11.304Z</time></trkpt><trkpt lat="42.0930647" lon="13.8672444"><ele>313.2857142857143</ele><time>2026-04-14T09:23:16.314Z</time></trkpt><trkpt lat="42.0929876" lon="13.8672533"><ele>313.7142857142857</ele><time>2026-04-14T09:23:21.306Z</time></trkpt><trkpt lat="42.0929133" lon="13.8672723"><ele>314.1428571428571</ele><time>2026-04-14T09:23:27.295Z</time></trkpt><trkpt lat="42.0928541" lon="13.8673051"><ele>314.57142857142856</ele><time>2026-04-14T09:23:31.363Z</time></trkpt><trkpt lat="42.092794" lon="13.8673355"><ele>315.0</ele><time>2026-04-14T09:23:36.196Z</time></trkpt><trkpt lat="42.0927296" lon="13.8673529"><ele>315.0</ele><time>2026-04-14T09:23:40.376Z</time></trkpt><trkpt lat="42.0926552" lon="13.8673918"><ele>315.0</ele><time>2026-04-14T09:23:45.367Z</time></trkpt><trkpt lat="42.0925839" lon="13.8674204"><ele>315.0</ele><time>2026-04-14T09:23:53.39Z</time></trkpt><trkpt lat="42.0925254" lon="13.8674639"><ele>315.0</ele><time>2026-04-14T09:23:56.385Z</time></trkpt><trkpt lat="42.0924506" lon="13.8674772"><ele>315.0</ele><time>2026-04-14T09:24:01.295Z</time></trkpt><trkpt lat="42.0923737" lon="13.8674871"><ele>315.0</ele><time>2026-04-14T09:24:05.362Z</time></trkpt><trkpt lat="42.0923056" lon="13.867521"><ele>315.0</ele><time>2026-04-14T09:24:09.255Z</time></trkpt><trkpt lat="42.0922261" lon="13.8675425"><ele>315.85714285714283</ele><time>2026-04-14T09:24:13.365Z</time></trkpt><trkpt lat="42.0921673" lon="13.8675835"><ele>316.7142857142857</ele><time>2026-04-14T09:24:20.301Z</time></trkpt><trkpt lat="42.0920843" lon="13.8676011"><ele>317.57142857142856</ele><time>2026-04-14T09:24:24.295Z</time></trkpt><trkpt lat="42.0920198" lon="13.8676195"><ele>318.42857142857144</ele><time>2026-04-14T09:24:28.314Z</time></trkpt><trkpt lat="42.0919582" lon="13.8676604"><ele>319.2857142857143</ele><time>2026-04-14T09:24:35.377Z</time></trkpt><trkpt lat="42.0918848" lon="13.867695"><ele>320.1428571428571</ele><time>2026-04-14T09:24:40.295Z</time></trkpt><trkpt lat="42.091821" lon="13.8677367"><ele>321.0</ele><time>2026-04-14T09:24:45.373Z</time></trkpt><trkpt lat="42.0917548" lon="13.867769"><ele>321.1428571428571</ele><time>2026-04-14T09:24:49.359Z</time></trkpt><trkpt lat="42.0916869" lon="13.8677867"><ele>321.2857142857143</ele><time>2026-04-14T09:24:53.367Z</time></trkpt><trkpt lat="42.0916098" lon="13.8677761"><ele>321.42857142857144</ele><time>2026-04-14T09:25:01.315Z</time></trkpt><trkpt lat="42.091547" lon="13.8677906"><ele>321.57142857142856</ele><time>2026-04-14T09:25:04.295Z</time></trkpt><trkpt lat="42.0914847" lon="13.8678176"><ele>321.7142857142857</ele><time>2026-04-14T09:25:08.401Z</time></trkpt><trkpt lat="42.0914219" lon="13.867855"><ele>321.85714285714283</ele><time>2026-04-14T09:25:13.296Z</time></trkpt><trkpt lat="42.0913538" lon="13.8678874"><ele>322.0</ele><time>2026-04-14T09:25:18.385Z</time></trkpt><trkpt lat="42.0912982" lon="13.8679393"><ele>322.85714285714283</ele><time>2026-04-14T09:25:24.394Z</time></trkpt><trkpt lat="42.0912463" lon="13.8680026"><ele>323.7142857142857</ele><time>2026-04-14T09:25:29.296Z</time></trkpt><trkpt lat="42.0911825" lon="13.8680581"><ele>324.57142857142856</ele><time>2026-04-14T09:25:34.345Z</time></trkpt><trkpt lat="42.0911326" lon="13.8681216"><ele>325.42857142857144</ele><time>2026-04-14T09:25:39.301Z</time></trkpt><trkpt lat="42.0910826" lon="13.8681765"><ele>326.2857142857143</ele><time>2026-04-14T09:25:43.361Z</time></trkpt><trkpt lat="42.0910422" lon="13.8682523"><ele>327.1428571428571</ele><time>2026-04-14T09:25:48.196Z</time></trkpt><trkpt lat="42.091001" lon="13.868324"><ele>328.0</ele><time>2026-04-14T09:25:52.295Z</time></trkpt><trkpt lat="42.0909614" lon="13.868401"><ele>327.99999999999994</ele><time>2026-04-14T09:25:57.359Z</time></trkpt><trkpt lat="42.0909097" lon="13.8684844"><ele>328.0</ele><time>2026-04-14T09:26:03.296Z</time></trkpt><trkpt lat="42.0908719" lon="13.868562"><ele>328.0</ele><time>2026-04-14T09:26:08.295Z</time></trkpt><trkpt lat="42.0908392" lon="13.8686401"><ele>328.0</ele><time>2026-04-14T09:26:13.296Z</time></trkpt><trkpt lat="42.0907957" lon="13.8687177"><ele>328.0</ele><time>2026-04-14T09:26:19.304Z</time></trkpt><trkpt lat="42.0907583" lon="13.86879"><ele>327.99999999999994</ele><time>2026-04-14T09:26:23.361Z</time></trkpt><trkpt lat="42.0907181" lon="13.8688612"><ele>328.0</ele><time>2026-04-14T09:26:28.295Z</time></trkpt><trkpt lat="42.0906531" lon="13.8688998"><ele>328.71428571428567</ele><time>2026-04-14T09:26:33.375Z</time></trkpt><trkpt lat="42.0905989" lon="13.8689557"><ele>329.42857142857144</ele><time>2026-04-14T09:26:39.306Z</time></trkpt><trkpt lat="42.0905613" lon="13.8690364"><ele>330.1428571428571</ele><time>2026-04-14T09:26:44.296Z</time></trkpt><trkpt lat="42.0905006" lon="13.8690948"><ele>330.85714285714283</ele><time>2026-04-14T09:26:49.362Z</time></trkpt><trkpt lat="42.0904259" lon="13.8690867"><ele>331.57142857142856</ele><time>2026-04-14T09:26:54.296Z</time></trkpt><trkpt lat="42.0903707" lon="13.8690412"><ele>332.2857142857143</ele><time>2026-04-14T09:26:59.296Z</time></trkpt><trkpt lat="42.0903118" lon="13.8689929"><ele>333.0</ele><time>2026-04-14T09:27:04.296Z</time></trkpt><trkpt lat="42.0902414" lon="13.8689431"><ele>333.0</ele><time>2026-04-14T09:27:10.296Z</time></trkpt><trkpt lat="42.0901793" lon="13.8688843"><ele>333.0</ele><time>2026-04-14T09:27:15.295Z</time></trkpt><trkpt lat="42.0901238" lon="13.8688268"><ele>333.0</ele><time>2026-04-14T09:27:20.231Z</time></trkpt><trkpt lat="42.0900752" lon="13.8687699"><ele>333.0</ele><time>2026-04-14T09:27:24.408Z</time></trkpt><trkpt lat="42.0900148" lon="13.8687305"><ele>333.0</ele><time>2026-04-14T09:27:30.311Z</time></trkpt><trkpt lat="42.0899544" lon="13.868696"><ele>333.0</ele><time>2026-04-14T09:27:34.296Z</time></trkpt><trkpt lat="42.0898905" lon="13.8686709"><ele>333.0</ele><time>2026-04-14T09:27:40.302Z</time></trkpt><trkpt lat="42.0898242" lon="13.8686349"><ele>334.2857142857143</ele><time>2026-04-14T09:27:44.472Z</time></trkpt><trkpt lat="42.0897555" lon="13.8686038"><ele>335.57142857142856</ele><time>2026-04-14T09:27:50.315Z</time></trkpt><trkpt lat="42.0896869" lon="13.868568"><ele>336.85714285714283</ele><time>2026-04-14T09:27:56.296Z</time></trkpt><trkpt lat="42.0896254" lon="13.8685368"><ele>338.1428571428571</ele><time>2026-04-14T09:28:02.295Z</time></trkpt><trkpt lat="42.0895573" lon="13.8685106"><ele>339.42857142857144</ele><time>2026-04-14T09:28:08.296Z</time></trkpt><trkpt lat="42.0894945" lon="13.8684953"><ele>340.71428571428567</ele><time>2026-04-14T09:28:13.295Z</time></trkpt><trkpt lat="42.0894294" lon="13.868489"><ele>342.0</ele><time>2026-04-14T09:28:18.296Z</time></trkpt><trkpt lat="42.0893667" lon="13.8685178"><ele>341.99999999999994</ele><time>2026-04-14T09:28:23.296Z</time></trkpt><trkpt lat="42.0892934" lon="13.8685266"><ele>342.0</ele><time>2026-04-14T09:28:29.295Z</time></trkpt><trkpt lat="42.0892295" lon="13.8685377"><ele>342.0</ele><time>2026-04-14T09:28:34.296Z</time></trkpt><trkpt lat="42.0891678" lon="13.8685574"><ele>342.0</ele><time>2026-04-14T09:28:39.198Z</time></trkpt><trkpt lat="42.0891042" lon="13.8685793"><ele>342.0</ele><time>2026-04-14T09:28:44.296Z</time></trkpt><trkpt lat="42.0890515" lon="13.8686267"><ele>341.99999999999994</ele><time>2026-04-14T09:28:49.249Z</time></trkpt><trkpt lat="42.0889865" lon="13.8686746"><ele>342.0</ele><time>2026-04-14T09:28:54.375Z</time></trkpt><trkpt lat="42.0889187" lon="13.8687012"><ele>342.99999999999994</ele><time>2026-04-14T09:28:59.214Z</time></trkpt><trkpt lat="42.0888531" lon="13.8687233"><ele>344.0</ele><time>2026-04-14T09:29:04.368Z</time></trkpt><trkpt lat="42.0887898" lon="13.8687346"><ele>345.0</ele><time>2026-04-14T09:29:09.317Z</time></trkpt><trkpt lat="42.0887266" lon="13.8687392"><ele>346.0</ele><time>2026-04-14T09:29:14.299Z</time></trkpt><trkpt lat="42.0886602" lon="13.8687747"><ele>347.0</ele><time>2026-04-14T09:29:19.378Z</time></trkpt><trkpt lat="42.0885906" lon="13.8688085"><ele>347.99999999999994</ele><time>2026-04-14T09:29:26.271Z</time></trkpt><trkpt lat="42.0885281" lon="13.8688419"><ele>349.0</ele><time>2026-04-14T09:29:30.28Z</time></trkpt><trkpt lat="42.0884576" lon="13.8688708"><ele>348.99999999999994</ele><time>2026-04-14T09:29:35.295Z</time></trkpt><trkpt lat="42.0883906" lon="13.8688981"><ele>349.0</ele><time>2026-04-14T09:29:40.296Z</time></trkpt><trkpt lat="42.0883511" lon="13.8689735"><ele>349.0</ele><time>2026-04-14T09:29:46.296Z</time></trkpt><trkpt lat="42.0882761" lon="13.868993"><ele>349.0</ele><time>2026-04-14T09:29:50.332Z</time></trkpt><trkpt lat="42.0882118" lon="13.8690181"><ele>349.0</ele><time>2026-04-14T09:29:54.197Z</time></trkpt><trkpt lat="42.0881406" lon="13.8690502"><ele>348.99999999999994</ele><time>2026-04-14T09:29:59.273Z</time></trkpt><trkpt lat="42.0880731" lon="13.869074"><ele>349.0</ele><time>2026-04-14T09:30:04.311Z</time></trkpt><trkpt lat="42.0880006" lon="13.8690936"><ele>349.4285714285714</ele><time>2026-04-14T09:30:09.295Z</time></trkpt><trkpt lat="42.0879338" lon="13.8691021"><ele>349.85714285714283</ele><time>2026-04-14T09:30:14.337Z</time></trkpt><trkpt lat="42.087864" lon="13.8690922"><ele>350.2857142857143</ele><time>2026-04-14T09:30:19.349Z</time></trkpt><trkpt lat="42.0878058" lon="13.8691316"><ele>350.71428571428567</ele><time>2026-04-14T09:30:24.295Z</time></trkpt><trkpt lat="42.0877419" lon="13.8691537"><ele>351.1428571428571</ele><time>2026-04-14T09:30:28.307Z</time></trkpt><trkpt lat="42.0876716" lon="13.8691644"><ele>351.57142857142856</ele><time>2026-04-14T09:30:34.343Z</time></trkpt><trkpt lat="42.0876045" lon="13.8691726"><ele>352.0</ele><time>2026-04-14T09:30:39.329Z</time></trkpt><trkpt lat="42.0875266" lon="13.869184"><ele>352.0</ele><time>2026-04-14T09:30:44.379Z</time></trkpt><trkpt lat="42.0874477" lon="13.8691965"><ele>352.0</ele><time>2026-04-14T09:30:48.354Z</time></trkpt><trkpt lat="42.0873832" lon="13.8692041"><ele>352.0</ele><time>2026-04-14T09:30:52.289Z</time></trkpt><trkpt lat="42.0873057" lon="13.8692172"><ele>352.0</ele><time>2026-04-14T09:30:57.295Z</time></trkpt><trkpt lat="42.0872319" lon="13.8692387"><ele>352.0</ele><time>2026-04-14T09:31:02.251Z</time></trkpt><trkpt lat="42.0871612" lon="13.869247"><ele>352.0</ele><time>2026-04-14T09:31:06.377Z</time></trkpt><trkpt lat="42.0870872" lon="13.8692442"><ele>352.0</ele><time>2026-04-14T09:31:11.364Z</time></trkpt><trkpt lat="42.0870203" lon="13.8692516"><ele>352.0</ele><time>2026-04-14T09:31:17.35Z</time></trkpt><trkpt lat="42.0869462" lon="13.8692646"><ele>352.0</ele><time>2026-04-14T09:31:21.368Z</time></trkpt><trkpt lat="42.0868786" lon="13.8692817"><ele>352.0</ele><time>2026-04-14T09:31:26.37Z</time></trkpt><trkpt lat="42.0868062" lon="13.8692988"><ele>352.0</ele><time>2026-04-14T09:31:34.361Z</time></trkpt><trkpt lat="42.0867387" lon="13.8692872"><ele>352.0</ele><time>2026-04-14T09:31:40.358Z</time></trkpt><trkpt lat="42.0866646" lon="13.8693158"><ele>352.0</ele><time>2026-04-14T09:31:45.318Z</time></trkpt><trkpt lat="42.0866037" lon="13.8693785"><ele>352.0</ele><time>2026-04-14T09:31:47.353Z</time></trkpt><trkpt lat="42.0865271" lon="13.8694192"><ele>352.57142857142856</ele><time>2026-04-14T09:31:51.37Z</time></trkpt><trkpt lat="42.0864571" lon="13.8694257"><ele>353.1428571428571</ele><time>2026-04-14T09:31:55.3Z</time></trkpt><trkpt lat="42.086379" lon="13.8694162"><ele>353.71428571428567</ele><time>2026-04-14T09:31:59.391Z</time></trkpt><trkpt lat="42.0863164" lon="13.8694016"><ele>354.2857142857143</ele><time>2026-04-14T09:32:02.384Z</time></trkpt><trkpt lat="42.0862497" lon="13.8693914"><ele>354.85714285714283</ele><time>2026-04-14T09:32:06.363Z</time></trkpt><trkpt lat="42.0861767" lon="13.8694044"><ele>355.4285714285714</ele><time>2026-04-14T09:32:12.359Z</time></trkpt><trkpt lat="42.086099" lon="13.8694122"><ele>356.0</ele><time>2026-04-14T09:32:16.382Z</time></trkpt><trkpt lat="42.086033" lon="13.8694138"><ele>355.99999999999994</ele><time>2026-04-14T09:32:20.295Z</time></trkpt><trkpt lat="42.0859619" lon="13.8694227"><ele>356.0</ele><time>2026-04-14T09:32:25.308Z</time></trkpt><trkpt lat="42.0858869" lon="13.8694421"><ele>356.0</ele><time>2026-04-14T09:32:29.378Z</time></trkpt><trkpt lat="42.0858233" lon="13.8694625"><ele>356.0</ele><time>2026-04-14T09:32:34.354Z</time></trkpt><trkpt lat="42.0857426" lon="13.8694685"><ele>356.0</ele><time>2026-04-14T09:32:43.351Z</time></trkpt><trkpt lat="42.0856764" lon="13.8694665"><ele>355.99999999999994</ele><time>2026-04-14T09:32:46.366Z</time></trkpt><trkpt lat="42.0856091" lon="13.8694822"><ele>356.0</ele><time>2026-04-14T09:32:52.232Z</time></trkpt><trkpt lat="42.0855388" lon="13.8694983"><ele>356.1428571428571</ele><time>2026-04-14T09:32:55.363Z</time></trkpt><trkpt lat="42.0854634" lon="13.8694982"><ele>356.2857142857143</ele><time>2026-04-14T09:33:00.296Z</time></trkpt><trkpt lat="42.0853883" lon="13.8695027"><ele>356.42857142857144</ele><time>2026-04-14T09:33:05.231Z</time></trkpt><trkpt lat="42.0853207" lon="13.8695035"><ele>356.57142857142856</ele><time>2026-04-14T09:33:09.296Z</time></trkpt><trkpt lat="42.0852563" lon="13.8695108"><ele>356.7142857142857</ele><time>2026-04-14T09:33:13.388Z</time></trkpt><trkpt lat="42.0851881" lon="13.8695166"><ele>356.85714285714283</ele><time>2026-04-14T09:33:18.27Z</time></trkpt><trkpt lat="42.0851177" lon="13.8695205"><ele>357.0</ele><time>2026-04-14T09:33:22.357Z</time></trkpt><trkpt lat="42.0850457" lon="13.8695088"><ele>357.0</ele><time>2026-04-14T09:33:27.295Z</time></trkpt><trkpt lat="42.0849839" lon="13.8695489"><ele>357.0</ele><time>2026-04-14T09:33:32.295Z</time></trkpt><trkpt lat="42.0849178" lon="13.8695677"><ele>357.0</ele><time>2026-04-14T09:33:36.295Z</time></trkpt><trkpt lat="42.0848524" lon="13.8695587"><ele>357.0</ele><time>2026-04-14T09:33:39.296Z</time></trkpt><trkpt lat="42.0847864" lon="13.8695587"><ele>357.0</ele><time>2026-04-14T09:33:43.2Z</time></trkpt><trkpt lat="42.0847239" lon="13.8695441"><ele>357.0</ele><time>2026-04-14T09:33:47.257Z</time></trkpt><trkpt lat="42.084663" lon="13.8695209"><ele>357.0</ele><time>2026-04-14T09:33:51.296Z</time></trkpt><trkpt lat="42.0845973" lon="13.8694963"><ele>357.0</ele><time>2026-04-14T09:33:55.296Z</time></trkpt><trkpt lat="42.084522" lon="13.8694666"><ele>357.0</ele><time>2026-04-14T09:34:00.339Z</time></trkpt><trkpt lat="42.0844559" lon="13.869464"><ele>357.0</ele><time>2026-04-14T09:34:04.234Z</time></trkpt><trkpt lat="42.0843921" lon="13.8694434"><ele>357.0</ele><time>2026-04-14T09:34:08.295Z</time></trkpt><trkpt lat="42.0843258" lon="13.8694295"><ele>357.0</ele><time>2026-04-14T09:34:12.205Z</time></trkpt><trkpt lat="42.0842569" lon="13.8694263"><ele>357.0</ele><time>2026-04-14T09:34:16.368Z</time></trkpt><trkpt lat="42.0841896" lon="13.8694162"><ele>357.0</ele><time>2026-04-14T09:34:21.363Z</time></trkpt><trkpt lat="42.0841064" lon="13.8694162"><ele>357.14285714285717</ele><time>2026-04-14T09:34:31.349Z</time></trkpt><trkpt lat="42.0840299" lon="13.86942"><ele>357.2857142857143</ele><time>2026-04-14T09:34:37.41Z</time></trkpt><trkpt lat="42.0839537" lon="13.8694176"><ele>357.42857142857144</ele><time>2026-04-14T09:34:40.295Z</time></trkpt><trkpt lat="42.0838866" lon="13.8694284"><ele>357.57142857142856</ele><time>2026-04-14T09:34:44.295Z</time></trkpt><trkpt lat="42.0838218" lon="13.8694363"><ele>357.7142857142857</ele><time>2026-04-14T09:34:50.383Z</time></trkpt><trkpt lat="42.0837524" lon="13.8694452"><ele>357.8571428571429</ele><time>2026-04-14T09:34:55.387Z</time></trkpt><trkpt lat="42.0836725" lon="13.869448"><ele>358.0</ele><time>2026-04-14T09:34:59.414Z</time></trkpt><trkpt lat="42.0836018" lon="13.8694166"><ele>358.00000000000006</ele><time>2026-04-14T09:35:05.351Z</time></trkpt><trkpt lat="42.0835283" lon="13.8694027"><ele>358.0</ele><time>2026-04-14T09:35:11.364Z</time></trkpt><trkpt lat="42.0834496" lon="13.8694054"><ele>358.0</ele><time>2026-04-14T09:35:15.381Z</time></trkpt><trkpt lat="42.0833797" lon="13.8694181"><ele>358.0</ele><time>2026-04-14T09:35:22.364Z</time></trkpt><trkpt lat="42.08332" lon="13.8693901"><ele>358.0</ele><time>2026-04-14T09:35:25.355Z</time></trkpt><trkpt lat="42.0832603" lon="13.8693481"><ele>358.00000000000006</ele><time>2026-04-14T09:35:29.369Z</time></trkpt><trkpt lat="42.0831858" lon="13.8693397"><ele>358.0</ele><time>2026-04-14T09:35:33.354Z</time></trkpt><trkpt lat="42.0831126" lon="13.8693399"><ele>358.00000000000006</ele><time>2026-04-14T09:35:37.296Z</time></trkpt><trkpt lat="42.0830356" lon="13.8693426"><ele>358.0</ele><time>2026-04-14T09:35:40.35Z</time></trkpt><trkpt lat="42.0829687" lon="13.8693266"><ele>358.0</ele><time>2026-04-14T09:35:46.37Z</time></trkpt><trkpt lat="42.0828909" lon="13.8692978"><ele>358.0</ele><time>2026-04-14T09:35:50.296Z</time></trkpt><trkpt lat="42.0828105" lon="13.8692831"><ele>358.0</ele><time>2026-04-14T09:35:53.368Z</time></trkpt><trkpt lat="42.0827487" lon="13.8692537"><ele>358.00000000000006</ele><time>2026-04-14T09:35:57.365Z</time></trkpt><trkpt lat="42.0826933" lon="13.8692071"><ele>358.0</ele><time>2026-04-14T09:36:01.375Z</time></trkpt><trkpt lat="42.0826356" lon="13.8691673"><ele>358.00000000000006</ele><time>2026-04-14T09:36:05.37Z</time></trkpt><trkpt lat="42.0825751" lon="13.8691389"><ele>358.0</ele><time>2026-04-14T09:36:09.377Z</time></trkpt><trkpt lat="42.0824959" lon="13.8691313"><ele>358.0</ele><time>2026-04-14T09:36:14.379Z</time></trkpt><trkpt lat="42.0824299" lon="13.8691256"><ele>358.0</ele><time>2026-04-14T09:36:18.354Z</time></trkpt><trkpt lat="42.0823579" lon="13.8691167"><ele>358.0</ele><time>2026-04-14T09:36:23.367Z</time></trkpt><trkpt lat="42.0822786" lon="13.8690838"><ele>358.00000000000006</ele><time>2026-04-14T09:36:28.376Z</time></trkpt><trkpt lat="42.0822157" lon="13.8690568"><ele>358.0</ele><time>2026-04-14T09:36:32.359Z</time></trkpt><trkpt lat="42.0821435" lon="13.8690366"><ele>358.42857142857144</ele><time>2026-04-14T09:36:38.296Z</time></trkpt><trkpt lat="42.082078" lon="13.8690228"><ele>358.8571428571429</ele><time>2026-04-14T09:36:43.291Z</time></trkpt><trkpt lat="42.0820068" lon="13.8690417"><ele>359.28571428571433</ele><time>2026-04-14T09:36:48.296Z</time></trkpt><trkpt lat="42.0819296" lon="13.8690369"><ele>359.7142857142857</ele><time>2026-04-14T09:36:53.295Z</time></trkpt><trkpt lat="42.0818643" lon="13.8690217"><ele>360.1428571428571</ele><time>2026-04-14T09:36:57.295Z</time></trkpt><trkpt lat="42.0817905" lon="13.8689887"><ele>360.5714285714286</ele><time>2026-04-14T09:37:02.296Z</time></trkpt><trkpt lat="42.0817173" lon="13.8689662"><ele>361.0</ele><time>2026-04-14T09:37:07.271Z</time></trkpt><trkpt lat="42.0816428" lon="13.868944"><ele>360.8571428571429</ele><time>2026-04-14T09:37:12.303Z</time></trkpt><trkpt lat="42.08158" lon="13.8689342"><ele>360.71428571428567</ele><time>2026-04-14T09:37:16.296Z</time></trkpt><trkpt lat="42.0815092" lon="13.868908"><ele>360.57142857142856</ele><time>2026-04-14T09:37:21.324Z</time></trkpt><trkpt lat="42.0814352" lon="13.8688792"><ele>360.42857142857144</ele><time>2026-04-14T09:37:27.375Z</time></trkpt><trkpt lat="42.0813703" lon="13.8688643"><ele>360.28571428571433</ele><time>2026-04-14T09:37:32.295Z</time></trkpt><trkpt lat="42.0812963" lon="13.8688521"><ele>360.1428571428571</ele><time>2026-04-14T09:37:42.359Z</time></trkpt><trkpt lat="42.0812216" lon="13.8688391"><ele>360.0</ele><time>2026-04-14T09:37:45.408Z</time></trkpt><trkpt lat="42.0811417" lon="13.8688297"><ele>360.0</ele><time>2026-04-14T09:37:49.716Z</time></trkpt><trkpt lat="42.0810809" lon="13.8688693"><ele>360.0</ele><time>2026-04-14T09:37:54.999Z</time></trkpt><trkpt lat="42.0809848" lon="13.8687555"><ele>360.0</ele><time>2026-04-14T09:37:59.296Z</time></trkpt><trkpt lat="42.0809225" lon="13.8686838"><ele>360.0</ele><time>2026-04-14T09:38:01.295Z</time></trkpt><trkpt lat="42.080858" lon="13.8686522"><ele>360.0</ele><time>2026-04-14T09:38:05.296Z</time></trkpt><trkpt lat="42.0807837" lon="13.8686191"><ele>360.0</ele><time>2026-04-14T09:38:10.295Z</time></trkpt><trkpt lat="42.0807174" lon="13.8686294"><ele>360.1428571428571</ele><time>2026-04-14T09:38:14.253Z</time></trkpt><trkpt lat="42.0806534" lon="13.8686093"><ele>360.28571428571433</ele><time>2026-04-14T09:38:18.296Z</time></trkpt><trkpt lat="42.0805843" lon="13.8685674"><ele>360.42857142857144</ele><time>2026-04-14T09:38:23.295Z</time></trkpt><trkpt lat="42.0805112" lon="13.8685314"><ele>360.57142857142856</ele><time>2026-04-14T09:38:28.295Z</time></trkpt><trkpt lat="42.080436" lon="13.8685115"><ele>360.71428571428567</ele><time>2026-04-14T09:38:33.386Z</time></trkpt><trkpt lat="42.0803698" lon="13.868485"><ele>360.8571428571429</ele><time>2026-04-14T09:38:38.402Z</time></trkpt><trkpt lat="42.08031" lon="13.8684488"><ele>361.0</ele><time>2026-04-14T09:38:43.355Z</time></trkpt><trkpt lat="42.0802442" lon="13.868422"><ele>361.14285714285717</ele><time>2026-04-14T09:38:47.39Z</time></trkpt><trkpt lat="42.0801788" lon="13.8684026"><ele>361.2857142857143</ele><time>2026-04-14T09:38:51.347Z</time></trkpt><trkpt lat="42.0801144" lon="13.8683889"><ele>361.42857142857144</ele><time>2026-04-14T09:38:55.296Z</time></trkpt><trkpt lat="42.0800232" lon="13.8683838"><ele>361.57142857142856</ele><time>2026-04-14T09:39:01.352Z</time></trkpt><trkpt lat="42.0799624" lon="13.8683446"><ele>361.71428571428567</ele><time>2026-04-14T09:39:06.392Z</time></trkpt><trkpt lat="42.0798912" lon="13.8682986"><ele>361.85714285714283</ele><time>2026-04-14T09:39:11.372Z</time></trkpt><trkpt lat="42.0798285" lon="13.868272"><ele>362.0</ele><time>2026-04-14T09:39:16.311Z</time></trkpt><trkpt lat="42.0797679" lon="13.8682459"><ele>362.0</ele><time>2026-04-14T09:39:21.307Z</time></trkpt><trkpt lat="42.0797022" lon="13.8682176"><ele>362.0</ele><time>2026-04-14T09:39:25.376Z</time></trkpt><trkpt lat="42.0796438" lon="13.8681759"><ele>362.0</ele><time>2026-04-14T09:39:31.32Z</time></trkpt><trkpt lat="42.0795809" lon="13.8681416"><ele>362.0</ele><time>2026-04-14T09:39:39.358Z</time></trkpt><trkpt lat="42.0794941" lon="13.8681118"><ele>362.0</ele><time>2026-04-14T09:39:43.359Z</time></trkpt><trkpt lat="42.0794272" lon="13.868082"><ele>362.0</ele><time>2026-04-14T09:39:46.358Z</time></trkpt><trkpt lat="42.0793722" lon="13.8680327"><ele>362.0</ele><time>2026-04-14T09:39:50.337Z</time></trkpt><trkpt lat="42.0793181" lon="13.8679805"><ele>362.0</ele><time>2026-04-14T09:39:55.295Z</time></trkpt><trkpt lat="42.0792488" lon="13.8679007"><ele>362.0</ele><time>2026-04-14T09:40:00.378Z</time></trkpt><trkpt lat="42.0791975" lon="13.86784"><ele>362.0</ele><time>2026-04-14T09:40:07.371Z</time></trkpt><trkpt lat="42.0791587" lon="13.8677632"><ele>362.0</ele><time>2026-04-14T09:40:11.296Z</time></trkpt><trkpt lat="42.0791176" lon="13.8676968"><ele>362.0</ele><time>2026-04-14T09:40:14.295Z</time></trkpt><trkpt lat="42.0790485" lon="13.8676476"><ele>362.0</ele><time>2026-04-14T09:40:18.296Z</time></trkpt><trkpt lat="42.0789973" lon="13.8675868"><ele>362.0</ele><time>2026-04-14T09:40:22.381Z</time></trkpt><trkpt lat="42.0789475" lon="13.8675252"><ele>362.5</ele><time>2026-04-14T09:40:27.295Z</time></trkpt><trkpt lat="42.0788614" lon="13.8674577"><ele>363.0</ele><time>2026-04-14T09:40:33.331Z</time></trkpt><trkpt lat="42.0788171" lon="13.8673931"><ele>363.5</ele><time>2026-04-14T09:40:38.375Z</time></trkpt><trkpt lat="42.0787761" lon="13.8672955"><ele>364.0</ele><time>2026-04-14T09:40:45.295Z</time></trkpt><trkpt lat="42.0787387" lon="13.8672138"><ele>364.5</ele><time>2026-04-14T09:40:48.377Z</time></trkpt><trkpt lat="42.0787189" lon="13.8671171"><ele>365.0</ele><time>2026-04-14T09:40:53.371Z</time></trkpt><trkpt lat="42.0786998" lon="13.8670362"><ele>365.00000000000006</ele><time>2026-04-14T09:40:57.296Z</time></trkpt><trkpt lat="42.0786701" lon="13.866953"><ele>365.0</ele><time>2026-04-14T09:41:02.355Z</time></trkpt><trkpt lat="42.0786306" lon="13.8668753"><ele>365.0</ele><time>2026-04-14T09:41:07.296Z</time></trkpt><trkpt lat="42.0785994" lon="13.8667912"><ele>365.0</ele><time>2026-04-14T09:41:12.375Z</time></trkpt><trkpt lat="42.0785494" lon="13.8667273"><ele>365.0</ele><time>2026-04-14T09:41:16.352Z</time></trkpt><trkpt lat="42.0785172" lon="13.8666213"><ele>365.00000000000006</ele><time>2026-04-14T09:41:20.303Z</time></trkpt><trkpt lat="42.0784816" lon="13.8665505"><ele>365.0</ele><time>2026-04-14T09:41:22.296Z</time></trkpt><trkpt lat="42.0784266" lon="13.8664796"><ele>364.7142857142857</ele><time>2026-04-14T09:41:26.296Z</time></trkpt><trkpt lat="42.0783771" lon="13.8664179"><ele>364.42857142857144</ele><time>2026-04-14T09:41:31.378Z</time></trkpt><trkpt lat="42.0783516" lon="13.8663301"><ele>364.1428571428571</ele><time>2026-04-14T09:41:36.296Z</time></trkpt><trkpt lat="42.0783447" lon="13.8662394"><ele>363.8571428571429</ele><time>2026-04-14T09:41:40.362Z</time></trkpt><trkpt lat="42.0783608" lon="13.8661486"><ele>363.57142857142856</ele><time>2026-04-14T09:41:44.338Z</time></trkpt><trkpt lat="42.0783705" lon="13.8660624"><ele>363.2857142857143</ele><time>2026-04-14T09:41:48.363Z</time></trkpt><trkpt lat="42.0783599" lon="13.8659501"><ele>363.0</ele><time>2026-04-14T09:41:54.337Z</time></trkpt><trkpt lat="42.0783104" lon="13.8658776"><ele>363.2857142857143</ele><time>2026-04-14T09:41:59.295Z</time></trkpt><trkpt lat="42.0782585" lon="13.8658258"><ele>363.57142857142856</ele><time>2026-04-14T09:42:03.373Z</time></trkpt><trkpt lat="42.0782141" lon="13.8657537"><ele>363.8571428571429</ele><time>2026-04-14T09:42:08.296Z</time></trkpt><trkpt lat="42.0781653" lon="13.8656697"><ele>364.1428571428571</ele><time>2026-04-14T09:42:13.363Z</time></trkpt><trkpt lat="42.0781189" lon="13.8655996"><ele>364.42857142857144</ele><time>2026-04-14T09:42:17.295Z</time></trkpt><trkpt lat="42.0780497" lon="13.865543"><ele>364.7142857142857</ele><time>2026-04-14T09:42:21.381Z</time></trkpt><trkpt lat="42.0779702" lon="13.8655358"><ele>365.0</ele><time>2026-04-14T09:42:27.296Z</time></trkpt><trkpt lat="42.0778997" lon="13.8655582"><ele>365.00000000000006</ele><time>2026-04-14T09:42:32.25Z</time></trkpt><trkpt lat="42.0778437" lon="13.865609"><ele>365.0</ele><time>2026-04-14T09:42:35.295Z</time></trkpt><trkpt lat="42.0777895" lon="13.8656806"><ele>365.0</ele><time>2026-04-14T09:42:39.376Z</time></trkpt><trkpt lat="42.0777452" lon="13.8657499"><ele>365.0</ele><time>2026-04-14T09:42:43.366Z</time></trkpt><trkpt lat="42.0776963" lon="13.8658101"><ele>365.0</ele><time>2026-04-14T09:42:47.295Z</time></trkpt><trkpt lat="42.0776392" lon="13.8658556"><ele>365.00000000000006</ele><time>2026-04-14T09:42:51.371Z</time></trkpt><trkpt lat="42.0775814" lon="13.8659052"><ele>365.0</ele><time>2026-04-14T09:42:56.346Z</time></trkpt><trkpt lat="42.0775307" lon="13.8659671"><ele>365.00000000000006</ele><time>2026-04-14T09:43:01.295Z</time></trkpt><trkpt lat="42.0774711" lon="13.8660106"><ele>365.0</ele><time>2026-04-14T09:43:06.383Z</time></trkpt><trkpt lat="42.0774175" lon="13.8660834"><ele>365.0</ele><time>2026-04-14T09:43:11.383Z</time></trkpt><trkpt lat="42.0773735" lon="13.8661479"><ele>365.0</ele><time>2026-04-14T09:43:15.299Z</time></trkpt><trkpt lat="42.0773023" lon="13.8661842"><ele>365.0</ele><time>2026-04-14T09:43:19.296Z</time></trkpt><trkpt lat="42.0772423" lon="13.8662225"><ele>365.00000000000006</ele><time>2026-04-14T09:43:23.296Z</time></trkpt><trkpt lat="42.0771825" lon="13.866275"><ele>365.0</ele><time>2026-04-14T09:43:27.493Z</time></trkpt><trkpt lat="42.0771108" lon="13.8663178"><ele>365.14285714285717</ele><time>2026-04-14T09:43:32.363Z</time></trkpt><trkpt lat="42.0770522" lon="13.8663535"><ele>365.2857142857143</ele><time>2026-04-14T09:43:36.374Z</time></trkpt><trkpt lat="42.0769823" lon="13.8663935"><ele>365.42857142857144</ele><time>2026-04-14T09:43:43.374Z</time></trkpt><trkpt lat="42.0769232" lon="13.8664298"><ele>365.57142857142856</ele><time>2026-04-14T09:43:47.369Z</time></trkpt><trkpt lat="42.0768562" lon="13.8664805"><ele>365.7142857142857</ele><time>2026-04-14T09:43:54.368Z</time></trkpt><trkpt lat="42.0767924" lon="13.8665353"><ele>365.8571428571429</ele><time>2026-04-14T09:43:59.295Z</time></trkpt><trkpt lat="42.0767424" lon="13.8665869"><ele>366.0</ele><time>2026-04-14T09:44:03.295Z</time></trkpt><trkpt lat="42.0766731" lon="13.8666559"><ele>366.0</ele><time>2026-04-14T09:44:06.815Z</time></trkpt><trkpt lat="42.0766161" lon="13.8667147"><ele>366.0</ele><time>2026-04-14T09:44:09.931Z</time></trkpt><trkpt lat="42.0765605" lon="13.8667597"><ele>366.0</ele><time>2026-04-14T09:44:13.597Z</time></trkpt><trkpt lat="42.076507" lon="13.8668104"><ele>366.0</ele><time>2026-04-14T09:44:17.258Z</time></trkpt><trkpt lat="42.0764747" lon="13.8668868"><ele>366.0</ele><time>2026-04-14T09:44:21.295Z</time></trkpt><trkpt lat="42.0764876" lon="13.8669714"><ele>366.0</ele><time>2026-04-14T09:44:25.296Z</time></trkpt><trkpt lat="42.0765414" lon="13.8670514"><ele>366.0</ele><time>2026-04-14T09:44:30.297Z</time></trkpt><trkpt lat="42.0765918" lon="13.867109"><ele>366.0</ele><time>2026-04-14T09:44:34.296Z</time></trkpt><trkpt lat="42.076638" lon="13.8671678"><ele>366.0</ele><time>2026-04-14T09:44:38.296Z</time></trkpt><trkpt lat="42.0766843" lon="13.8672274"><ele>366.0</ele><time>2026-04-14T09:44:42.295Z</time></trkpt><trkpt lat="42.0767274" lon="13.8673002"><ele>366.0</ele><time>2026-04-14T09:44:47.393Z</time></trkpt><trkpt lat="42.076756" lon="13.8673768"><ele>366.0</ele><time>2026-04-14T09:44:56.332Z</time></trkpt><trkpt lat="42.0767815" lon="13.8674571"><ele>366.0</ele><time>2026-04-14T09:45:01.372Z</time></trkpt><trkpt lat="42.0768122" lon="13.8675352"><ele>366.0</ele><time>2026-04-14T09:45:08.377Z</time></trkpt><trkpt lat="42.0768409" lon="13.8676186"><ele>366.0</ele><time>2026-04-14T09:45:11.295Z</time></trkpt><trkpt lat="42.0769234" lon="13.8677124"><ele>366.0</ele><time>2026-04-14T09:45:15.374Z</time></trkpt><trkpt lat="42.0769832" lon="13.867771"><ele>366.0</ele><time>2026-04-14T09:45:19.296Z</time></trkpt><trkpt lat="42.0770344" lon="13.8678422"><ele>366.0</ele><time>2026-04-14T09:45:23.351Z</time></trkpt><trkpt lat="42.0770819" lon="13.8679112"><ele>366.0</ele><time>2026-04-14T09:45:27.233Z</time></trkpt><trkpt lat="42.0771244" lon="13.8679745"><ele>366.0</ele><time>2026-04-14T09:45:30.298Z</time></trkpt><trkpt lat="42.0771623" lon="13.8680639"><ele>366.0</ele><time>2026-04-14T09:45:34.364Z</time></trkpt><trkpt lat="42.0771893" lon="13.868155"><ele>366.0</ele><time>2026-04-14T09:45:39.346Z</time></trkpt><trkpt lat="42.0772381" lon="13.8682359"><ele>366.0</ele><time>2026-04-14T09:45:44.295Z</time></trkpt><trkpt lat="42.0772867" lon="13.8682962"><ele>366.0</ele><time>2026-04-14T09:45:48.391Z</time></trkpt><trkpt lat="42.0773301" lon="13.8683642"><ele>366.0</ele><time>2026-04-14T09:45:53.381Z</time></trkpt><trkpt lat="42.077375" lon="13.8684503"><ele>366.0</ele><time>2026-04-14T09:45:58.373Z</time></trkpt><trkpt lat="42.0774079" lon="13.8685468"><ele>366.0</ele><time>2026-04-14T09:46:02.296Z</time></trkpt><trkpt lat="42.0774504" lon="13.8686498"><ele>366.1666666666667</ele><time>2026-04-14T09:46:08.364Z</time></trkpt><trkpt lat="42.0774999" lon="13.8687282"><ele>366.3333333333333</ele><time>2026-04-14T09:46:11.389Z</time></trkpt><trkpt lat="42.0775715" lon="13.8688393"><ele>366.5</ele><time>2026-04-14T09:46:23.385Z</time></trkpt><trkpt lat="42.0776151" lon="13.8689071"><ele>366.66666666666663</ele><time>2026-04-14T09:46:27.375Z</time></trkpt><trkpt lat="42.0776822" lon="13.8689871"><ele>366.8333333333333</ele><time>2026-04-14T09:46:30.375Z</time></trkpt><trkpt lat="42.0777259" lon="13.8690578"><ele>367.0</ele><time>2026-04-14T09:46:33.373Z</time></trkpt><trkpt lat="42.0777592" lon="13.8691466"><ele>367.0</ele><time>2026-04-14T09:46:37.401Z</time></trkpt><trkpt lat="42.0777986" lon="13.8692259"><ele>367.0</ele><time>2026-04-14T09:46:41.368Z</time></trkpt><trkpt lat="42.0778307" lon="13.8693024"><ele>367.0</ele><time>2026-04-14T09:46:45.4Z</time></trkpt><trkpt lat="42.0778672" lon="13.8693878"><ele>367.0</ele><time>2026-04-14T09:46:49.379Z</time></trkpt><trkpt lat="42.0778927" lon="13.8694802"><ele>367.0</ele><time>2026-04-14T09:46:54.391Z</time></trkpt><trkpt lat="42.0779289" lon="13.8695518"><ele>367.0</ele><time>2026-04-14T09:46:59.379Z</time></trkpt><trkpt lat="42.0779712" lon="13.8696353"><ele>367.0</ele><time>2026-04-14T09:47:04.295Z</time></trkpt><trkpt lat="42.078014" lon="13.869703"><ele>366.7142857142857</ele><time>2026-04-14T09:47:07.374Z</time></trkpt><trkpt lat="42.0780616" lon="13.8697675"><ele>366.42857142857144</ele><time>2026-04-14T09:47:12.304Z</time></trkpt><trkpt lat="42.0781163" lon="13.8698299"><ele>366.14285714285717</ele><time>2026-04-14T09:47:22.384Z</time></trkpt><trkpt lat="42.0781588" lon="13.8699267"><ele>365.8571428571429</ele><time>2026-04-14T09:47:26.292Z</time></trkpt><trkpt lat="42.0781906" lon="13.8700263"><ele>365.57142857142856</ele><time>2026-04-14T09:47:30.296Z</time></trkpt><trkpt lat="42.078235" lon="13.8701108"><ele>365.28571428571433</ele><time>2026-04-14T09:47:34.377Z</time></trkpt><trkpt lat="42.0782791" lon="13.870183"><ele>365.0</ele><time>2026-04-14T09:47:37.296Z</time></trkpt><trkpt lat="42.078321" lon="13.870268"><ele>364.8571428571429</ele><time>2026-04-14T09:47:40.364Z</time></trkpt><trkpt lat="42.0783585" lon="13.8703515"><ele>364.7142857142857</ele><time>2026-04-14T09:47:43.379Z</time></trkpt><trkpt lat="42.078401" lon="13.870423"><ele>364.57142857142856</ele><time>2026-04-14T09:47:48.335Z</time></trkpt><trkpt lat="42.0784433" lon="13.8705156"><ele>364.42857142857144</ele><time>2026-04-14T09:47:53.362Z</time></trkpt><trkpt lat="42.0784928" lon="13.8705787"><ele>364.2857142857143</ele><time>2026-04-14T09:47:56.296Z</time></trkpt><trkpt lat="42.0785491" lon="13.870644"><ele>364.14285714285717</ele><time>2026-04-14T09:48:01.367Z</time></trkpt><trkpt lat="42.0786195" lon="13.8706961"><ele>364.0</ele><time>2026-04-14T09:48:06.296Z</time></trkpt><trkpt lat="42.0786772" lon="13.8707464"><ele>364.0</ele><time>2026-04-14T09:48:10.295Z</time></trkpt><trkpt lat="42.0787104" lon="13.8708747"><ele>364.0</ele><time>2026-04-14T09:48:16.296Z</time></trkpt><trkpt lat="42.0787372" lon="13.8709564"><ele>364.0</ele><time>2026-04-14T09:48:18.296Z</time></trkpt><trkpt lat="42.0787797" lon="13.8710433"><ele>364.0</ele><time>2026-04-14T09:48:22.254Z</time></trkpt><trkpt lat="42.0788234" lon="13.8711409"><ele>364.0</ele><time>2026-04-14T09:48:26.29Z</time></trkpt><trkpt lat="42.0788594" lon="13.871212"><ele>364.0</ele><time>2026-04-14T09:48:29.364Z</time></trkpt><trkpt lat="42.0789046" lon="13.8712807"><ele>364.0</ele><time>2026-04-14T09:48:32.799Z</time></trkpt><trkpt lat="42.0789444" lon="13.8713513"><ele>364.0</ele><time>2026-04-14T09:48:36.377Z</time></trkpt><trkpt lat="42.0789837" lon="13.8714263"><ele>364.0</ele><time>2026-04-14T09:48:40.295Z</time></trkpt><trkpt lat="42.0790318" lon="13.8714831"><ele>364.0</ele><time>2026-04-14T09:48:46.367Z</time></trkpt><trkpt lat="42.0790778" lon="13.8715416"><ele>364.0</ele><time>2026-04-14T09:48:51.296Z</time></trkpt><trkpt lat="42.0791414" lon="13.8716183"><ele>364.0</ele><time>2026-04-14T09:48:56.378Z</time></trkpt><trkpt lat="42.0791758" lon="13.8717137"><ele>364.0</ele><time>2026-04-14T09:49:00.337Z</time></trkpt><trkpt lat="42.0792163" lon="13.8717996"><ele>364.0</ele><time>2026-04-14T09:49:08.354Z</time></trkpt><trkpt lat="42.0792652" lon="13.8718822"><ele>364.0</ele><time>2026-04-14T09:49:12.367Z</time></trkpt><trkpt lat="42.0793169" lon="13.8719368"><ele>364.0</ele><time>2026-04-14T09:49:16.439Z</time></trkpt><trkpt lat="42.0793615" lon="13.8719997"><ele>364.0</ele><time>2026-04-14T09:49:20.296Z</time></trkpt><trkpt lat="42.0794071" lon="13.872062"><ele>364.0</ele><time>2026-04-14T09:49:23.296Z</time></trkpt><trkpt lat="42.079453" lon="13.8721367"><ele>364.0</ele><time>2026-04-14T09:49:27.333Z</time></trkpt><trkpt lat="42.0794888" lon="13.8722156"><ele>364.0</ele><time>2026-04-14T09:49:31.296Z</time></trkpt><trkpt lat="42.0795375" lon="13.8722756"><ele>364.0</ele><time>2026-04-14T09:49:35.363Z</time></trkpt><trkpt lat="42.0795802" lon="13.8723433"><ele>364.0</ele><time>2026-04-14T09:49:42.373Z</time></trkpt><trkpt lat="42.0796273" lon="13.8724214"><ele>364.0</ele><time>2026-04-14T09:49:46.398Z</time></trkpt><trkpt lat="42.0796672" lon="13.8724992"><ele>364.0</ele><time>2026-04-14T09:49:50.342Z</time></trkpt><trkpt lat="42.0797173" lon="13.8725759"><ele>364.0</ele><time>2026-04-14T09:49:55.37Z</time></trkpt><trkpt lat="42.0797642" lon="13.8726401"><ele>364.0</ele><time>2026-04-14T09:49:58.381Z</time></trkpt><trkpt lat="42.0798143" lon="13.8727024"><ele>364.0</ele><time>2026-04-14T09:50:03.198Z</time></trkpt><trkpt lat="42.0798607" lon="13.8727813"><ele>364.0</ele><time>2026-04-14T09:50:08.392Z</time></trkpt><trkpt lat="42.0798981" lon="13.8728711"><ele>364.0</ele><time>2026-04-14T09:50:14.296Z</time></trkpt><trkpt lat="42.0799453" lon="13.8729384"><ele>364.0</ele><time>2026-04-14T09:50:18.367Z</time></trkpt><trkpt lat="42.0799999" lon="13.8730188"><ele>364.0</ele><time>2026-04-14T09:50:22.298Z</time></trkpt><trkpt lat="42.0800456" lon="13.8730843"><ele>364.0</ele><time>2026-04-14T09:50:27.376Z</time></trkpt><trkpt lat="42.0801104" lon="13.8731567"><ele>364.0</ele><time>2026-04-14T09:50:33.368Z</time></trkpt><trkpt lat="42.0801728" lon="13.8732014"><ele>364.0</ele><time>2026-04-14T09:50:37.296Z</time></trkpt><trkpt lat="42.0802323" lon="13.8732522"><ele>363.85714285714283</ele><time>2026-04-14T09:50:41.296Z</time></trkpt><trkpt lat="42.0802834" lon="13.8733082"><ele>363.7142857142857</ele><time>2026-04-14T09:50:45.367Z</time></trkpt><trkpt lat="42.0803376" lon="13.8733699"><ele>363.57142857142856</ele><time>2026-04-14T09:50:50.295Z</time></trkpt><trkpt lat="42.0803828" lon="13.8734291"><ele>363.42857142857144</ele><time>2026-04-14T09:50:54.366Z</time></trkpt><trkpt lat="42.0804322" lon="13.8735021"><ele>363.2857142857143</ele><time>2026-04-14T09:51:00.296Z</time></trkpt><trkpt lat="42.0804658" lon="13.873598"><ele>363.1428571428571</ele><time>2026-04-14T09:51:04.295Z</time></trkpt><trkpt lat="42.0804854" lon="13.8737056"><ele>363.0</ele><time>2026-04-14T09:51:08.385Z</time></trkpt><trkpt lat="42.0805015" lon="13.873791"><ele>362.99999999999994</ele><time>2026-04-14T09:51:12.376Z</time></trkpt><trkpt lat="42.0805322" lon="13.8738698"><ele>363.0</ele><time>2026-04-14T09:51:17.411Z</time></trkpt><trkpt lat="42.080569" lon="13.8739463"><ele>363.0</ele><time>2026-04-14T09:51:21.295Z</time></trkpt><trkpt lat="42.0806093" lon="13.8740338"><ele>363.0</ele><time>2026-04-14T09:51:25.295Z</time></trkpt><trkpt lat="42.0806479" lon="13.874108"><ele>363.0</ele><time>2026-04-14T09:51:29.371Z</time></trkpt><trkpt lat="42.0807103" lon="13.8741508"><ele>362.99999999999994</ele><time>2026-04-14T09:51:34.297Z</time></trkpt><trkpt lat="42.0807559" lon="13.8742279"><ele>363.0</ele><time>2026-04-14T09:51:39.295Z</time></trkpt><trkpt lat="42.0807894" lon="13.8743054"><ele>362.57142857142856</ele><time>2026-04-14T09:51:43.295Z</time></trkpt><trkpt lat="42.0808195" lon="13.8744057"><ele>362.1428571428571</ele><time>2026-04-14T09:51:47.295Z</time></trkpt><trkpt lat="42.0808532" lon="13.8744984"><ele>361.71428571428567</ele><time>2026-04-14T09:51:51.296Z</time></trkpt><trkpt lat="42.0808933" lon="13.8745765"><ele>361.2857142857143</ele><time>2026-04-14T09:51:55.295Z</time></trkpt><trkpt lat="42.0809337" lon="13.8746549"><ele>360.8571428571429</ele><time>2026-04-14T09:51:59.316Z</time></trkpt><trkpt lat="42.0809753" lon="13.8747268"><ele>360.4285714285714</ele><time>2026-04-14T09:52:03.295Z</time></trkpt><trkpt lat="42.0810142" lon="13.874795"><ele>360.0</ele><time>2026-04-14T09:52:07.373Z</time></trkpt><trkpt lat="42.0810489" lon="13.8748798"><ele>360.0</ele><time>2026-04-14T09:52:12.296Z</time></trkpt><trkpt lat="42.0810849" lon="13.874953"><ele>360.0</ele><time>2026-04-14T09:52:16.341Z</time></trkpt><trkpt lat="42.0811244" lon="13.8750359"><ele>360.0</ele><time>2026-04-14T09:52:20.39Z</time></trkpt><trkpt lat="42.0811571" lon="13.8751204"><ele>360.0</ele><time>2026-04-14T09:52:25.375Z</time></trkpt><trkpt lat="42.081191" lon="13.8752098"><ele>360.0</ele><time>2026-04-14T09:52:30.368Z</time></trkpt><trkpt lat="42.0812406" lon="13.8752978"><ele>360.0</ele><time>2026-04-14T09:52:38.367Z</time></trkpt><trkpt lat="42.0812935" lon="13.8753645"><ele>360.0</ele><time>2026-04-14T09:52:43.332Z</time></trkpt><trkpt lat="42.0813291" lon="13.8754482"><ele>359.5</ele><time>2026-04-14T09:52:47.416Z</time></trkpt><trkpt lat="42.0813971" lon="13.8755396"><ele>359.0</ele><time>2026-04-14T09:52:52.295Z</time></trkpt><trkpt lat="42.081465" lon="13.8756057"><ele>358.5</ele><time>2026-04-14T09:52:57.329Z</time></trkpt><trkpt lat="42.0815426" lon="13.8756505"><ele>358.0</ele><time>2026-04-14T09:52:59.295Z</time></trkpt><trkpt lat="42.0816068" lon="13.8756907"><ele>357.5</ele><time>2026-04-14T09:53:05.369Z</time></trkpt><trkpt lat="42.0816753" lon="13.8757286"><ele>357.0</ele><time>2026-04-14T09:53:09.296Z</time></trkpt><trkpt lat="42.0817415" lon="13.8757714"><ele>357.0</ele><time>2026-04-14T09:53:13.356Z</time></trkpt><trkpt lat="42.0818118" lon="13.8757996"><ele>357.0</ele><time>2026-04-14T09:53:21.362Z</time></trkpt><trkpt lat="42.081882" lon="13.8758314"><ele>357.0</ele><time>2026-04-14T09:53:23.296Z</time></trkpt><trkpt lat="42.081956" lon="13.8758753"><ele>357.0</ele><time>2026-04-14T09:53:27.381Z</time></trkpt><trkpt lat="42.0820191" lon="13.8758899"><ele>357.0</ele><time>2026-04-14T09:53:31.396Z</time></trkpt><trkpt lat="42.0820845" lon="13.8758925"><ele>357.0</ele><time>2026-04-14T09:53:37.385Z</time></trkpt><trkpt lat="42.0821491" lon="13.8758676"><ele>357.0</ele><time>2026-04-14T09:53:42.355Z</time></trkpt><trkpt lat="42.0822288" lon="13.8758658"><ele>357.0</ele><time>2026-04-14T09:53:47.394Z</time></trkpt><trkpt lat="42.0822932" lon="13.8758827"><ele>357.0</ele><time>2026-04-14T09:53:50.371Z</time></trkpt><trkpt lat="42.0823754" lon="13.8759448"><ele>357.0</ele><time>2026-04-14T09:53:53.391Z</time></trkpt><trkpt lat="42.0824327" lon="13.8760223"><ele>357.0</ele><time>2026-04-14T09:53:56.372Z</time></trkpt><trkpt lat="42.0824999" lon="13.8760736"><ele>357.0</ele><time>2026-04-14T09:54:00.382Z</time></trkpt><trkpt lat="42.082564" lon="13.8761139"><ele>357.0</ele><time>2026-04-14T09:54:05.371Z</time></trkpt><trkpt lat="42.0826332" lon="13.8761481"><ele>357.2857142857143</ele><time>2026-04-14T09:54:10.325Z</time></trkpt><trkpt lat="42.082692" lon="13.8761847"><ele>357.57142857142856</ele><time>2026-04-14T09:54:14.382Z</time></trkpt><trkpt lat="42.0827483" lon="13.8762448"><ele>357.8571428571429</ele><time>2026-04-14T09:54:19.386Z</time></trkpt><trkpt lat="42.0828014" lon="13.8762977"><ele>358.1428571428571</ele><time>2026-04-14T09:54:23.376Z</time></trkpt><trkpt lat="42.0828667" lon="13.8763511"><ele>358.42857142857144</ele><time>2026-04-14T09:54:27.388Z</time></trkpt><trkpt lat="42.0829291" lon="13.8764014"><ele>358.7142857142857</ele><time>2026-04-14T09:54:31.366Z</time></trkpt><trkpt lat="42.0829906" lon="13.8764579"><ele>359.0</ele><time>2026-04-14T09:54:37.391Z</time></trkpt><trkpt lat="42.0830524" lon="13.8765251"><ele>359.0</ele><time>2026-04-14T09:54:42.369Z</time></trkpt><trkpt lat="42.0831253" lon="13.8765198"><ele>359.0</ele><time>2026-04-14T09:54:47.296Z</time></trkpt><trkpt lat="42.0832046" lon="13.876521"><ele>359.0</ele><time>2026-04-14T09:54:51.396Z</time></trkpt><trkpt lat="42.083277" lon="13.8764833"><ele>359.0</ele><time>2026-04-14T09:54:55.348Z</time></trkpt><trkpt lat="42.0833532" lon="13.876436"><ele>359.0</ele><time>2026-04-14T09:55:03.365Z</time></trkpt><trkpt lat="42.0834283" lon="13.8763772"><ele>359.0</ele><time>2026-04-14T09:55:06.384Z</time></trkpt><trkpt lat="42.083491" lon="13.8763051"><ele>358.42857142857144</ele><time>2026-04-14T09:55:11.296Z</time></trkpt><trkpt lat="42.0835525" lon="13.8762567"><ele>357.8571428571429</ele><time>2026-04-14T09:55:15.357Z</time></trkpt><trkpt lat="42.0836096" lon="13.8762024"><ele>357.2857142857143</ele><time>2026-04-14T09:55:21.383Z</time></trkpt><trkpt lat="42.0836684" lon="13.8761504"><ele>356.7142857142857</ele><time>2026-04-14T09:55:28.385Z</time></trkpt><trkpt lat="42.083711" lon="13.8760867"><ele>356.14285714285717</ele><time>2026-04-14T09:55:31.372Z</time></trkpt><trkpt lat="42.0837638" lon="13.876005"><ele>355.57142857142856</ele><time>2026-04-14T09:55:35.295Z</time></trkpt><trkpt lat="42.0838309" lon="13.8759674"><ele>355.0</ele><time>2026-04-14T09:55:39.365Z</time></trkpt><trkpt lat="42.0838947" lon="13.8759493"><ele>354.57142857142856</ele><time>2026-04-14T09:55:46.329Z</time></trkpt><trkpt lat="42.0839561" lon="13.8759222"><ele>354.14285714285717</ele><time>2026-04-14T09:55:53.379Z</time></trkpt><trkpt lat="42.0840189" lon="13.8758913"><ele>353.7142857142857</ele><time>2026-04-14T09:55:59.372Z</time></trkpt><trkpt lat="42.0840807" lon="13.8758377"><ele>353.2857142857143</ele><time>2026-04-14T09:56:03.275Z</time></trkpt><trkpt lat="42.0841445" lon="13.8757993"><ele>352.85714285714283</ele><time>2026-04-14T09:56:06.377Z</time></trkpt><trkpt lat="42.0841988" lon="13.8757466"><ele>352.42857142857144</ele><time>2026-04-14T09:56:09.379Z</time></trkpt><trkpt lat="42.0842609" lon="13.8756842"><ele>352.0</ele><time>2026-04-14T09:56:13.382Z</time></trkpt><trkpt lat="42.0843135" lon="13.875621"><ele>352.0</ele><time>2026-04-14T09:56:16.295Z</time></trkpt><trkpt lat="42.0843658" lon="13.8755626"><ele>352.0</ele><time>2026-04-14T09:56:19.377Z</time></trkpt><trkpt lat="42.0844302" lon="13.8755054"><ele>352.0</ele><time>2026-04-14T09:56:23.295Z</time></trkpt><trkpt lat="42.0844821" lon="13.875452"><ele>352.0</ele><time>2026-04-14T09:56:27.221Z</time></trkpt><trkpt lat="42.0845329" lon="13.875383"><ele>352.0</ele><time>2026-04-14T09:56:31.296Z</time></trkpt><trkpt lat="42.0845857" lon="13.8753274"><ele>352.0</ele><time>2026-04-14T09:56:35.296Z</time></trkpt><trkpt lat="42.0846485" lon="13.875266"><ele>352.0</ele><time>2026-04-14T09:56:40.272Z</time></trkpt><trkpt lat="42.0847126" lon="13.8752144"><ele>352.0</ele><time>2026-04-14T09:56:44.381Z</time></trkpt><trkpt lat="42.0847657" lon="13.8751651"><ele>352.0</ele><time>2026-04-14T09:56:48.358Z</time></trkpt><trkpt lat="42.0848238" lon="13.8751322"><ele>352.0</ele><time>2026-04-14T09:56:53.371Z</time></trkpt><trkpt lat="42.0848654" lon="13.8750642"><ele>352.0</ele><time>2026-04-14T09:57:02.366Z</time></trkpt><trkpt lat="42.0849217" lon="13.8750233"><ele>352.0</ele><time>2026-04-14T09:57:06.361Z</time></trkpt><trkpt lat="42.0849925" lon="13.8749615"><ele>352.0</ele><time>2026-04-14T09:57:10.351Z</time></trkpt><trkpt lat="42.0850545" lon="13.8749011"><ele>352.0</ele><time>2026-04-14T09:57:14.295Z</time></trkpt><trkpt lat="42.0851135" lon="13.87485"><ele>352.16666666666663</ele><time>2026-04-14T09:57:19.34Z</time></trkpt><trkpt lat="42.085178" lon="13.8747889"><ele>352.3333333333333</ele><time>2026-04-14T09:57:25.344Z</time></trkpt><trkpt lat="42.0852508" lon="13.8747287"><ele>352.5</ele><time>2026-04-14T09:57:29.295Z</time></trkpt><trkpt lat="42.0853118" lon="13.8746804"><ele>352.6666666666667</ele><time>2026-04-14T09:57:33.367Z</time></trkpt><trkpt lat="42.0853652" lon="13.8746096"><ele>352.83333333333337</ele><time>2026-04-14T09:57:41.295Z</time></trkpt><trkpt lat="42.0854254" lon="13.8745509"><ele>353.0</ele><time>2026-04-14T09:57:46.371Z</time></trkpt><trkpt lat="42.0854869" lon="13.8745179"><ele>353.0</ele><time>2026-04-14T09:57:52.296Z</time></trkpt><trkpt lat="42.0855557" lon="13.8744836"><ele>353.0</ele><time>2026-04-14T09:57:59.373Z</time></trkpt><trkpt lat="42.0856178" lon="13.874428"><ele>353.0</ele><time>2026-04-14T09:58:04.341Z</time></trkpt><trkpt lat="42.0856802" lon="13.8743951"><ele>353.0</ele><time>2026-04-14T09:58:07.383Z</time></trkpt><trkpt lat="42.0857436" lon="13.8743471"><ele>353.0</ele><time>2026-04-14T09:58:11.364Z</time></trkpt><trkpt lat="42.0858014" lon="13.8743047"><ele>353.0</ele><time>2026-04-14T09:58:16.296Z</time></trkpt><trkpt lat="42.0858706" lon="13.8742669"><ele>353.0</ele><time>2026-04-14T09:58:21.295Z</time></trkpt><trkpt lat="42.0859505" lon="13.8742377"><ele>351.85714285714283</ele><time>2026-04-14T09:58:24.296Z</time></trkpt><trkpt lat="42.0860124" lon="13.8742166"><ele>350.7142857142857</ele><time>2026-04-14T09:58:27.295Z</time></trkpt><trkpt lat="42.0860854" lon="13.8741862"><ele>349.57142857142856</ele><time>2026-04-14T09:58:31.394Z</time></trkpt><trkpt lat="42.0861482" lon="13.8741694"><ele>348.42857142857144</ele><time>2026-04-14T09:58:36.318Z</time></trkpt><trkpt lat="42.0862117" lon="13.8741583"><ele>347.2857142857143</ele><time>2026-04-14T09:58:39.391Z</time></trkpt><trkpt lat="42.0862831" lon="13.8741715"><ele>346.14285714285717</ele><time>2026-04-14T09:58:44.354Z</time></trkpt><trkpt lat="42.0863521" lon="13.8741824"><ele>345.0</ele><time>2026-04-14T09:58:49.296Z</time></trkpt><trkpt lat="42.0864281" lon="13.8742018"><ele>345.0</ele><time>2026-04-14T09:58:54.378Z</time></trkpt><trkpt lat="42.0865018" lon="13.8742254"><ele>345.0</ele><time>2026-04-14T09:58:58.415Z</time></trkpt><trkpt lat="42.0865656" lon="13.8742361"><ele>345.0</ele><time>2026-04-14T09:59:02.296Z</time></trkpt><trkpt lat="42.0866325" lon="13.8742498"><ele>345.0</ele><time>2026-04-14T09:59:08.339Z</time></trkpt><trkpt lat="42.0867979" lon="13.874254"><ele>345.0</ele><time>2026-04-14T09:59:19.373Z</time></trkpt><trkpt lat="42.0868617" lon="13.8742768"><ele>345.0</ele><time>2026-04-14T09:59:22.367Z</time></trkpt><trkpt lat="42.0869274" lon="13.8743006"><ele>346.0</ele><time>2026-04-14T09:59:26.369Z</time></trkpt><trkpt lat="42.0869788" lon="13.8743548"><ele>347.0</ele><time>2026-04-14T09:59:30.362Z</time></trkpt><trkpt lat="42.0870337" lon="13.8743976"><ele>348.0</ele><time>2026-04-14T09:59:35.366Z</time></trkpt><trkpt lat="42.0870842" lon="13.8743448"><ele>349.0</ele><time>2026-04-14T09:59:39.368Z</time></trkpt><trkpt lat="42.0871493" lon="13.8743552"><ele>350.0</ele><time>2026-04-14T09:59:46.341Z</time></trkpt><trkpt lat="42.0872316" lon="13.8743345"><ele>351.0</ele><time>2026-04-14T09:59:49.295Z</time></trkpt><trkpt lat="42.0872941" lon="13.8743214"><ele>352.0</ele><time>2026-04-14T09:59:52.38Z</time></trkpt><trkpt lat="42.0873476" lon="13.8742736"><ele>350.42857142857144</ele><time>2026-04-14T09:59:55.295Z</time></trkpt><trkpt lat="42.0874154" lon="13.8742314"><ele>348.85714285714283</ele><time>2026-04-14T09:59:58.296Z</time></trkpt><trkpt lat="42.0874785" lon="13.8741946"><ele>347.2857142857143</ele><time>2026-04-14T10:00:01.296Z</time></trkpt><trkpt lat="42.0875522" lon="13.8741465"><ele>345.7142857142857</ele><time>2026-04-14T10:00:05.37Z</time></trkpt><trkpt lat="42.0876079" lon="13.8740945"><ele>344.14285714285717</ele><time>2026-04-14T10:00:10.299Z</time></trkpt><trkpt lat="42.0876806" lon="13.8740543"><ele>342.57142857142856</ele><time>2026-04-14T10:00:13.393Z</time></trkpt><trkpt lat="42.087751" lon="13.8740144"><ele>341.0</ele><time>2026-04-14T10:00:18.296Z</time></trkpt><trkpt lat="42.0878256" lon="13.8739489"><ele>341.0</ele><time>2026-04-14T10:00:22.272Z</time></trkpt><trkpt lat="42.0878762" lon="13.873889"><ele>341.0</ele><time>2026-04-14T10:00:25.413Z</time></trkpt><trkpt lat="42.0879326" lon="13.8738315"><ele>341.0</ele><time>2026-04-14T10:00:29.36Z</time></trkpt><trkpt lat="42.0879945" lon="13.8737801"><ele>341.0</ele><time>2026-04-14T10:00:33.296Z</time></trkpt><trkpt lat="42.0880578" lon="13.8737474"><ele>341.0</ele><time>2026-04-14T10:00:37.362Z</time></trkpt><trkpt lat="42.0881228" lon="13.8737099"><ele>341.0</ele><time>2026-04-14T10:00:42.362Z</time></trkpt><trkpt lat="42.0881876" lon="13.8736673"><ele>341.0</ele><time>2026-04-14T10:00:47.384Z</time></trkpt><trkpt lat="42.0882523" lon="13.8736175"><ele>341.0</ele><time>2026-04-14T10:00:51.37Z</time></trkpt><trkpt lat="42.0883269" lon="13.8735725"><ele>341.0</ele><time>2026-04-14T10:00:55.296Z</time></trkpt><trkpt lat="42.0883878" lon="13.8735261"><ele>341.0</ele><time>2026-04-14T10:00:59.295Z</time></trkpt><trkpt lat="42.0884439" lon="13.8734749"><ele>341.0</ele><time>2026-04-14T10:01:03.295Z</time></trkpt><trkpt lat="42.0884983" lon="13.8734278"><ele>341.0</ele><time>2026-04-14T10:01:07.296Z</time></trkpt><trkpt lat="42.0885486" lon="13.8733723"><ele>341.0</ele><time>2026-04-14T10:01:11.219Z</time></trkpt><trkpt lat="42.0886031" lon="13.8733049"><ele>341.0</ele><time>2026-04-14T10:01:16.316Z</time></trkpt><trkpt lat="42.0886511" lon="13.8732463"><ele>340.2857142857143</ele><time>2026-04-14T10:01:20.338Z</time></trkpt><trkpt lat="42.0886889" lon="13.8731714"><ele>339.57142857142856</ele><time>2026-04-14T10:01:24.312Z</time></trkpt><trkpt lat="42.0887268" lon="13.8731031"><ele>338.8571428571429</ele><time>2026-04-14T10:01:28.295Z</time></trkpt><trkpt lat="42.0887799" lon="13.8730528"><ele>338.1428571428571</ele><time>2026-04-14T10:01:33.354Z</time></trkpt><trkpt lat="42.0888276" lon="13.8729696"><ele>337.42857142857144</ele><time>2026-04-14T10:01:39.296Z</time></trkpt><trkpt lat="42.0888681" lon="13.8729004"><ele>336.7142857142857</ele><time>2026-04-14T10:01:43.356Z</time></trkpt><trkpt lat="42.0889216" lon="13.8728249"><ele>336.0</ele><time>2026-04-14T10:01:48.404Z</time></trkpt><trkpt lat="42.0889619" lon="13.8727586"><ele>336.0</ele><time>2026-04-14T10:01:52.369Z</time></trkpt><trkpt lat="42.0890013" lon="13.8726739"><ele>336.0</ele><time>2026-04-14T10:01:57.384Z</time></trkpt><trkpt lat="42.0890441" lon="13.8725809"><ele>336.0</ele><time>2026-04-14T10:02:02.327Z</time></trkpt><trkpt lat="42.0890869" lon="13.8725048"><ele>336.0</ele><time>2026-04-14T10:02:06.374Z</time></trkpt><trkpt lat="42.0891294" lon="13.8724345"><ele>336.0</ele><time>2026-04-14T10:02:10.356Z</time></trkpt><trkpt lat="42.0891599" lon="13.8723566"><ele>336.0</ele><time>2026-04-14T10:02:14.278Z</time></trkpt><trkpt lat="42.0891887" lon="13.8722582"><ele>336.0</ele><time>2026-04-14T10:02:19.367Z</time></trkpt><trkpt lat="42.0892187" lon="13.8721661"><ele>335.7142857142857</ele><time>2026-04-14T10:02:24.369Z</time></trkpt><trkpt lat="42.0892507" lon="13.8720928"><ele>335.42857142857144</ele><time>2026-04-14T10:02:28.295Z</time></trkpt><trkpt lat="42.0892843" lon="13.8720052"><ele>335.1428571428571</ele><time>2026-04-14T10:02:32.383Z</time></trkpt><trkpt lat="42.0893081" lon="13.8719198"><ele>334.8571428571429</ele><time>2026-04-14T10:02:36.379Z</time></trkpt><trkpt lat="42.089344" lon="13.8718486"><ele>334.57142857142856</ele><time>2026-04-14T10:02:41.296Z</time></trkpt><trkpt lat="42.0893748" lon="13.8717576"><ele>334.2857142857143</ele><time>2026-04-14T10:02:46.296Z</time></trkpt><trkpt lat="42.0894007" lon="13.8716795"><ele>334.0</ele><time>2026-04-14T10:02:51.362Z</time></trkpt><trkpt lat="42.0894355" lon="13.8715954"><ele>333.57142857142856</ele><time>2026-04-14T10:02:56.203Z</time></trkpt><trkpt lat="42.0894723" lon="13.871508"><ele>333.14285714285717</ele><time>2026-04-14T10:03:01.295Z</time></trkpt><trkpt lat="42.0895044" lon="13.8714124"><ele>332.7142857142857</ele><time>2026-04-14T10:03:06.295Z</time></trkpt><trkpt lat="42.0895256" lon="13.8713323"><ele>332.2857142857143</ele><time>2026-04-14T10:03:10.296Z</time></trkpt><trkpt lat="42.0895538" lon="13.8712461"><ele>331.85714285714283</ele><time>2026-04-14T10:03:14.295Z</time></trkpt><trkpt lat="42.0895805" lon="13.8711688"><ele>331.42857142857144</ele><time>2026-04-14T10:03:18.306Z</time></trkpt><trkpt lat="42.0896083" lon="13.8710905"><ele>331.0</ele><time>2026-04-14T10:03:22.274Z</time></trkpt><trkpt lat="42.0896388" lon="13.871003"><ele>330.8571428571429</ele><time>2026-04-14T10:03:27.356Z</time></trkpt><trkpt lat="42.089665" lon="13.8709224"><ele>330.7142857142857</ele><time>2026-04-14T10:03:32.381Z</time></trkpt><trkpt lat="42.0896917" lon="13.8708424"><ele>330.57142857142856</ele><time>2026-04-14T10:03:37.311Z</time></trkpt><trkpt lat="42.0897236" lon="13.8707669"><ele>330.42857142857144</ele><time>2026-04-14T10:03:41.296Z</time></trkpt><trkpt lat="42.0897715" lon="13.8706878"><ele>330.2857142857143</ele><time>2026-04-14T10:03:46.351Z</time></trkpt><trkpt lat="42.0898182" lon="13.8706238"><ele>330.14285714285717</ele><time>2026-04-14T10:03:52.296Z</time></trkpt><trkpt lat="42.0898722" lon="13.8705742"><ele>330.0</ele><time>2026-04-14T10:03:56.343Z</time></trkpt><trkpt lat="42.0899409" lon="13.8705269"><ele>330.00000000000006</ele><time>2026-04-14T10:04:01.296Z</time></trkpt><trkpt lat="42.0899979" lon="13.8704821"><ele>330.0</ele><time>2026-04-14T10:04:05.371Z</time></trkpt><trkpt lat="42.0900557" lon="13.8704273"><ele>330.0</ele><time>2026-04-14T10:04:11.296Z</time></trkpt><trkpt lat="42.0901117" lon="13.8703711"><ele>330.0</ele><time>2026-04-14T10:04:15.372Z</time></trkpt><trkpt lat="42.0901672" lon="13.8703073"><ele>330.0</ele><time>2026-04-14T10:04:20.295Z</time></trkpt><trkpt lat="42.0902165" lon="13.8702361"><ele>330.00000000000006</ele><time>2026-04-14T10:04:24.362Z</time></trkpt><trkpt lat="42.0902699" lon="13.8701647"><ele>330.0</ele><time>2026-04-14T10:04:29.389Z</time></trkpt><trkpt lat="42.0903164" lon="13.8701055"><ele>330.0</ele><time>2026-04-14T10:04:34.374Z</time></trkpt><trkpt lat="42.0903322" lon="13.8700195"><ele>330.0</ele><time>2026-04-14T10:04:41.365Z</time></trkpt><trkpt lat="42.0903692" lon="13.8699308"><ele>330.0</ele><time>2026-04-14T10:04:48.388Z</time></trkpt><trkpt lat="42.0904149" lon="13.8698516"><ele>330.0</ele><time>2026-04-14T10:04:54.378Z</time></trkpt><trkpt lat="42.0904607" lon="13.8697868"><ele>330.0</ele><time>2026-04-14T10:04:58.374Z</time></trkpt><trkpt lat="42.0905709" lon="13.8696727"><ele>330.0</ele><time>2026-04-14T10:05:02.36Z</time></trkpt><trkpt lat="42.0906248" lon="13.8696151"><ele>330.0</ele><time>2026-04-14T10:05:04.357Z</time></trkpt><trkpt lat="42.090665" lon="13.8695264"><ele>330.0</ele><time>2026-04-14T10:05:08.337Z</time></trkpt><trkpt lat="42.0906095" lon="13.8694576"><ele>330.0</ele><time>2026-04-14T10:05:15.359Z</time></trkpt><trkpt lat="42.0906243" lon="13.869359"><ele>330.0</ele><time>2026-04-14T10:05:20.374Z</time></trkpt><trkpt lat="42.0906432" lon="13.8692515"><ele>330.0</ele><time>2026-04-14T10:05:22.296Z</time></trkpt><trkpt lat="42.0906717" lon="13.8691469"><ele>330.0</ele><time>2026-04-14T10:05:26.401Z</time></trkpt><trkpt lat="42.0906937" lon="13.8690463"><ele>329.7142857142857</ele><time>2026-04-14T10:05:30.364Z</time></trkpt><trkpt lat="42.0907152" lon="13.8689642"><ele>329.42857142857144</ele><time>2026-04-14T10:05:34.357Z</time></trkpt><trkpt lat="42.0907353" lon="13.8688676"><ele>329.1428571428571</ele><time>2026-04-14T10:05:39.365Z</time></trkpt><trkpt lat="42.0907439" lon="13.8687682"><ele>328.8571428571429</ele><time>2026-04-14T10:05:44.343Z</time></trkpt><trkpt lat="42.0907772" lon="13.8686912"><ele>328.57142857142856</ele><time>2026-04-14T10:05:49.422Z</time></trkpt><trkpt lat="42.0908331" lon="13.8686264"><ele>328.2857142857143</ele><time>2026-04-14T10:05:54.364Z</time></trkpt><trkpt lat="42.0908705" lon="13.8685552"><ele>328.0</ele><time>2026-04-14T10:05:59.379Z</time></trkpt><trkpt lat="42.0909111" lon="13.8684737"><ele>327.99999999999994</ele><time>2026-04-14T10:06:04.364Z</time></trkpt><trkpt lat="42.0909628" lon="13.8683904"><ele>328.0</ele><time>2026-04-14T10:06:09.331Z</time></trkpt><trkpt lat="42.0909994" lon="13.8683159"><ele>328.0</ele><time>2026-04-14T10:06:14.375Z</time></trkpt><trkpt lat="42.0910437" lon="13.8682413"><ele>328.0</ele><time>2026-04-14T10:06:18.379Z</time></trkpt><trkpt lat="42.0910837" lon="13.8681752"><ele>328.0</ele><time>2026-04-14T10:06:22.373Z</time></trkpt><trkpt lat="42.091157" lon="13.8681053"><ele>327.99999999999994</ele><time>2026-04-14T10:06:30.295Z</time></trkpt><trkpt lat="42.0912126" lon="13.8680525"><ele>328.0</ele><time>2026-04-14T10:06:35.272Z</time></trkpt><trkpt lat="42.0912673" lon="13.8680058"><ele>327.99999999999994</ele><time>2026-04-14T10:06:38.319Z</time></trkpt><trkpt lat="42.0913257" lon="13.8679602"><ele>328.0</ele><time>2026-04-14T10:06:43.313Z</time></trkpt><trkpt lat="42.0913818" lon="13.8679051"><ele>328.0</ele><time>2026-04-14T10:06:47.472Z</time></trkpt><trkpt lat="42.0914445" lon="13.8678587"><ele>328.0</ele><time>2026-04-14T10:06:52.377Z</time></trkpt><trkpt lat="42.0915075" lon="13.8678145"><ele>328.0</ele><time>2026-04-14T10:06:57.364Z</time></trkpt><trkpt lat="42.0915774" lon="13.8677862"><ele>327.99999999999994</ele><time>2026-04-14T10:07:03.296Z</time></trkpt><trkpt lat="42.0916557" lon="13.8677649"><ele>328.0</ele><time>2026-04-14T10:07:07.389Z</time></trkpt><trkpt lat="42.091724" lon="13.8677576"><ele>326.79999999999995</ele><time>2026-04-14T10:07:12.366Z</time></trkpt><trkpt lat="42.0919032" lon="13.8676711"><ele>325.6</ele><time>2026-04-14T10:07:30.369Z</time></trkpt><trkpt lat="42.0919658" lon="13.8676224"><ele>324.4</ele><time>2026-04-14T10:07:35.404Z</time></trkpt><trkpt lat="42.0920367" lon="13.8676347"><ele>323.20000000000005</ele><time>2026-04-14T10:07:38.92Z</time></trkpt><trkpt lat="42.0921031" lon="13.867625"><ele>322.0</ele><time>2026-04-14T10:07:42.295Z</time></trkpt><trkpt lat="42.0921616" lon="13.8675897"><ele>321.8333333333333</ele><time>2026-04-14T10:07:46.361Z</time></trkpt><trkpt lat="42.0922337" lon="13.8675806"><ele>321.66666666666663</ele><time>2026-04-14T10:07:51.366Z</time></trkpt><trkpt lat="42.092304" lon="13.8675733"><ele>321.5</ele><time>2026-04-14T10:07:57.369Z</time></trkpt><trkpt lat="42.0924449" lon="13.8675432"><ele>321.3333333333333</ele><time>2026-04-14T10:07:59.35Z</time></trkpt><trkpt lat="42.0925043" lon="13.8675109"><ele>321.1666666666667</ele><time>2026-04-14T10:08:01.295Z</time></trkpt><trkpt lat="42.0925687" lon="13.8674579"><ele>321.0</ele><time>2026-04-14T10:08:05.316Z</time></trkpt><trkpt lat="42.0926406" lon="13.8674307"><ele>320.1428571428571</ele><time>2026-04-14T10:08:10.296Z</time></trkpt><trkpt lat="42.0927147" lon="13.8674234"><ele>319.2857142857143</ele><time>2026-04-14T10:08:15.342Z</time></trkpt><trkpt lat="42.092788" lon="13.8673895"><ele>318.42857142857144</ele><time>2026-04-14T10:08:21.367Z</time></trkpt><trkpt lat="42.092857" lon="13.8673708"><ele>317.57142857142856</ele><time>2026-04-14T10:08:26.296Z</time></trkpt><trkpt lat="42.0929235" lon="13.8673477"><ele>316.7142857142857</ele><time>2026-04-14T10:08:31.295Z</time></trkpt><trkpt lat="42.0929901" lon="13.8673337"><ele>315.85714285714283</ele><time>2026-04-14T10:08:36.391Z</time></trkpt><trkpt lat="42.0930495" lon="13.8672843"><ele>315.0</ele><time>2026-04-14T10:08:42.294Z</time></trkpt><trkpt lat="42.0931182" lon="13.867251"><ele>315.0</ele><time>2026-04-14T10:08:47.295Z</time></trkpt><trkpt lat="42.0931896" lon="13.8672105"><ele>315.0</ele><time>2026-04-14T10:08:52.381Z</time></trkpt><trkpt lat="42.0932539" lon="13.8671999"><ele>315.0</ele><time>2026-04-14T10:08:56.297Z</time></trkpt><trkpt lat="42.0933169" lon="13.8671942"><ele>315.0</ele><time>2026-04-14T10:09:00.369Z</time></trkpt><trkpt lat="42.0933846" lon="13.8671672"><ele>315.0</ele><time>2026-04-14T10:09:06.008Z</time></trkpt><trkpt lat="42.0934439" lon="13.8671339"><ele>315.0</ele><time>2026-04-14T10:09:10.297Z</time></trkpt><trkpt lat="42.0935038" lon="13.8671006"><ele>315.0</ele><time>2026-04-14T10:09:15.296Z</time></trkpt><trkpt lat="42.0935669" lon="13.8670703"><ele>314.57142857142856</ele><time>2026-04-14T10:09:20.295Z</time></trkpt><trkpt lat="42.0936408" lon="13.8670394"><ele>314.1428571428571</ele><time>2026-04-14T10:09:25.313Z</time></trkpt><trkpt lat="42.0937074" lon="13.8670074"><ele>313.7142857142857</ele><time>2026-04-14T10:09:30.297Z</time></trkpt><trkpt lat="42.0937758" lon="13.8669841"><ele>313.2857142857143</ele><time>2026-04-14T10:09:35.296Z</time></trkpt><trkpt lat="42.0938448" lon="13.866974"><ele>312.85714285714283</ele><time>2026-04-14T10:09:40.376Z</time></trkpt><trkpt lat="42.0939119" lon="13.8669474"><ele>312.42857142857144</ele><time>2026-04-14T10:09:45.295Z</time></trkpt><trkpt lat="42.0939726" lon="13.8669135"><ele>312.0</ele><time>2026-04-14T10:09:49.272Z</time></trkpt><trkpt lat="42.0940344" lon="13.8668844"><ele>312.0</ele><time>2026-04-14T10:09:53.296Z</time></trkpt><trkpt lat="42.0941022" lon="13.8668611"><ele>312.0</ele><time>2026-04-14T10:09:58.296Z</time></trkpt><trkpt lat="42.0941625" lon="13.8668343"><ele>312.0</ele><time>2026-04-14T10:10:03.342Z</time></trkpt><trkpt lat="42.0942417" lon="13.8668154"><ele>312.0</ele><time>2026-04-14T10:10:09.295Z</time></trkpt><trkpt lat="42.0943086" lon="13.8667943"><ele>312.0</ele><time>2026-04-14T10:10:13.296Z</time></trkpt><trkpt lat="42.0943791" lon="13.8667432"><ele>312.0</ele><time>2026-04-14T10:10:18.295Z</time></trkpt><trkpt lat="42.0944394" lon="13.8667121"><ele>312.0</ele><time>2026-04-14T10:10:23.296Z</time></trkpt><trkpt lat="42.094505" lon="13.8666763"><ele>312.0</ele><time>2026-04-14T10:10:28.295Z</time></trkpt><trkpt lat="42.0945692" lon="13.8666825"><ele>312.0</ele><time>2026-04-14T10:10:33.289Z</time></trkpt><trkpt lat="42.09464" lon="13.8667078"><ele>312.0</ele><time>2026-04-14T10:10:38.368Z</time></trkpt><trkpt lat="42.0947123" lon="13.8666934"><ele>312.0</ele><time>2026-04-14T10:10:44.381Z</time></trkpt><trkpt lat="42.0947779" lon="13.8666509"><ele>312.0</ele><time>2026-04-14T10:10:49.254Z</time></trkpt><trkpt lat="42.0948349" lon="13.8666132"><ele>312.0</ele><time>2026-04-14T10:10:53.307Z</time></trkpt><trkpt lat="42.0949062" lon="13.8666276"><ele>312.0</ele><time>2026-04-14T10:10:59.295Z</time></trkpt><trkpt lat="42.0949734" lon="13.8666463"><ele>311.7142857142857</ele><time>2026-04-14T10:11:03.398Z</time></trkpt><trkpt lat="42.095046" lon="13.866689"><ele>311.4285714285714</ele><time>2026-04-14T10:11:09.295Z</time></trkpt><trkpt lat="42.0950779" lon="13.866776"><ele>311.1428571428571</ele><time>2026-04-14T10:11:12.376Z</time></trkpt><trkpt lat="42.0951026" lon="13.8668718"><ele>310.8571428571429</ele><time>2026-04-14T10:11:16.296Z</time></trkpt><trkpt lat="42.0951343" lon="13.866963"><ele>310.57142857142856</ele><time>2026-04-14T10:11:21.295Z</time></trkpt><trkpt lat="42.0951531" lon="13.8670457"><ele>310.2857142857143</ele><time>2026-04-14T10:11:25.296Z</time></trkpt><trkpt lat="42.0951808" lon="13.867131"><ele>310.0</ele><time>2026-04-14T10:11:30.296Z</time></trkpt><trkpt lat="42.0951896" lon="13.867228"><ele>310.0</ele><time>2026-04-14T10:11:35.295Z</time></trkpt><trkpt lat="42.0952173" lon="13.86732"><ele>310.0</ele><time>2026-04-14T10:11:40.295Z</time></trkpt><trkpt lat="42.0952473" lon="13.867418"><ele>310.0</ele><time>2026-04-14T10:11:45.382Z</time></trkpt><trkpt lat="42.0952743" lon="13.8675137"><ele>310.0</ele><time>2026-04-14T10:11:51.296Z</time></trkpt><trkpt lat="42.0953377" lon="13.8675628"><ele>310.0</ele><time>2026-04-14T10:11:56.295Z</time></trkpt><trkpt lat="42.095386" lon="13.867618"><ele>310.0</ele><time>2026-04-14T10:12:01.366Z</time></trkpt><trkpt lat="42.0954233" lon="13.8676968"><ele>310.0</ele><time>2026-04-14T10:12:06.296Z</time></trkpt><trkpt lat="42.0954622" lon="13.8677707"><ele>309.8571428571429</ele><time>2026-04-14T10:12:11.296Z</time></trkpt><trkpt lat="42.0955185" lon="13.867821"><ele>309.7142857142857</ele><time>2026-04-14T10:12:16.377Z</time></trkpt><trkpt lat="42.0955366" lon="13.8679082"><ele>309.57142857142856</ele><time>2026-04-14T10:12:20.296Z</time></trkpt><trkpt lat="42.0955836" lon="13.8679864"><ele>309.42857142857144</ele><time>2026-04-14T10:12:24.365Z</time></trkpt><trkpt lat="42.0956007" lon="13.8680686"><ele>309.2857142857143</ele><time>2026-04-14T10:12:28.296Z</time></trkpt><trkpt lat="42.0956331" lon="13.8681513"><ele>309.14285714285717</ele><time>2026-04-14T10:12:33.358Z</time></trkpt><trkpt lat="42.0956645" lon="13.8682251"><ele>309.0</ele><time>2026-04-14T10:12:38.345Z</time></trkpt><trkpt lat="42.095701" lon="13.8683009"><ele>309.00000000000006</ele><time>2026-04-14T10:12:43.295Z</time></trkpt><trkpt lat="42.0957419" lon="13.8683796"><ele>309.0</ele><time>2026-04-14T10:12:47.381Z</time></trkpt><trkpt lat="42.0957841" lon="13.8684485"><ele>309.0</ele><time>2026-04-14T10:12:52.258Z</time></trkpt><trkpt lat="42.0958293" lon="13.8685155"><ele>309.0</ele><time>2026-04-14T10:12:56.372Z</time></trkpt><trkpt lat="42.0958804" lon="13.8685911"><ele>309.0</ele><time>2026-04-14T10:13:04.296Z</time></trkpt><trkpt lat="42.0959377" lon="13.8686605"><ele>309.00000000000006</ele><time>2026-04-14T10:13:09.364Z</time></trkpt><trkpt lat="42.0959918" lon="13.8687245"><ele>309.0</ele><time>2026-04-14T10:13:13.278Z</time></trkpt><trkpt lat="42.0960421" lon="13.8687915"><ele>308.5714285714286</ele><time>2026-04-14T10:13:17.346Z</time></trkpt><trkpt lat="42.0961047" lon="13.8688605"><ele>308.14285714285717</ele><time>2026-04-14T10:13:23.357Z</time></trkpt><trkpt lat="42.0961628" lon="13.8689274"><ele>307.7142857142857</ele><time>2026-04-14T10:13:27.295Z</time></trkpt><trkpt lat="42.0962162" lon="13.8689918"><ele>307.28571428571433</ele><time>2026-04-14T10:13:32.295Z</time></trkpt><trkpt lat="42.096275" lon="13.8690613"><ele>306.8571428571429</ele><time>2026-04-14T10:13:38.348Z</time></trkpt><trkpt lat="42.0963246" lon="13.8691323"><ele>306.42857142857144</ele><time>2026-04-14T10:13:43.296Z</time></trkpt><trkpt lat="42.0963681" lon="13.8691956"><ele>306.0</ele><time>2026-04-14T10:13:47.349Z</time></trkpt><trkpt lat="42.0964221" lon="13.8692505"><ele>305.85714285714283</ele><time>2026-04-14T10:13:52.31Z</time></trkpt><trkpt lat="42.0964703" lon="13.8693189"><ele>305.7142857142857</ele><time>2026-04-14T10:13:56.342Z</time></trkpt><trkpt lat="42.0965137" lon="13.8693818"><ele>305.57142857142856</ele><time>2026-04-14T10:14:04.375Z</time></trkpt><trkpt lat="42.0965589" lon="13.8694502"><ele>305.42857142857144</ele><time>2026-04-14T10:14:08.296Z</time></trkpt><trkpt lat="42.0966156" lon="13.8695223"><ele>305.2857142857143</ele><time>2026-04-14T10:14:12.361Z</time></trkpt><trkpt lat="42.0966507" lon="13.8696121"><ele>305.14285714285717</ele><time>2026-04-14T10:14:17.295Z</time></trkpt><trkpt lat="42.0966837" lon="13.8696937"><ele>305.0</ele><time>2026-04-14T10:14:21.291Z</time></trkpt><trkpt lat="42.0967202" lon="13.8697743"><ele>304.7142857142857</ele><time>2026-04-14T10:14:25.296Z</time></trkpt><trkpt lat="42.096754" lon="13.8698463"><ele>304.4285714285714</ele><time>2026-04-14T10:14:30.296Z</time></trkpt><trkpt lat="42.0967984" lon="13.8699194"><ele>304.1428571428571</ele><time>2026-04-14T10:14:38.296Z</time></trkpt><trkpt lat="42.0968174" lon="13.8700049"><ele>303.8571428571429</ele><time>2026-04-14T10:14:41.201Z</time></trkpt><trkpt lat="42.0968466" lon="13.8700873"><ele>303.57142857142856</ele><time>2026-04-14T10:14:45.279Z</time></trkpt><trkpt lat="42.0968789" lon="13.8701791"><ele>303.2857142857143</ele><time>2026-04-14T10:14:49.295Z</time></trkpt><trkpt lat="42.0969354" lon="13.8702542"><ele>303.0</ele><time>2026-04-14T10:14:53.295Z</time></trkpt><trkpt lat="42.0969966" lon="13.8703162"><ele>302.8571428571429</ele><time>2026-04-14T10:14:58.296Z</time></trkpt><trkpt lat="42.0970464" lon="13.8703914"><ele>302.7142857142857</ele><time>2026-04-14T10:15:04.254Z</time></trkpt><trkpt lat="42.0971097" lon="13.8704455"><ele>302.57142857142856</ele><time>2026-04-14T10:15:09.29Z</time></trkpt><trkpt lat="42.0971434" lon="13.8705225"><ele>302.42857142857144</ele><time>2026-04-14T10:15:13.296Z</time></trkpt><trkpt lat="42.0971947" lon="13.8705831"><ele>302.2857142857143</ele><time>2026-04-14T10:15:18.301Z</time></trkpt><trkpt lat="42.0972358" lon="13.8706509"><ele>302.14285714285717</ele><time>2026-04-14T10:15:22.296Z</time></trkpt><trkpt lat="42.0972915" lon="13.8707246"><ele>302.0</ele><time>2026-04-14T10:15:27.295Z</time></trkpt><trkpt lat="42.0973307" lon="13.8707936"><ele>302.00000000000006</ele><time>2026-04-14T10:15:31.296Z</time></trkpt><trkpt lat="42.09738" lon="13.8708502"><ele>302.0</ele><time>2026-04-14T10:15:36.296Z</time></trkpt><trkpt lat="42.0974379" lon="13.8708899"><ele>302.0</ele><time>2026-04-14T10:15:41.273Z</time></trkpt><trkpt lat="42.0974787" lon="13.8709767"><ele>302.0</ele><time>2026-04-14T10:15:45.296Z</time></trkpt><trkpt lat="42.0975042" lon="13.8710585"><ele>302.0</ele><time>2026-04-14T10:15:49.296Z</time></trkpt><trkpt lat="42.0975429" lon="13.8711366"><ele>302.00000000000006</ele><time>2026-04-14T10:15:54.334Z</time></trkpt><trkpt lat="42.097593" lon="13.871215"><ele>302.0</ele><time>2026-04-14T10:15:59.296Z</time></trkpt><trkpt lat="42.0976467" lon="13.8712839"><ele>301.83333333333337</ele><time>2026-04-14T10:16:04.236Z</time></trkpt><trkpt lat="42.097697" lon="13.8713629"><ele>301.6666666666667</ele><time>2026-04-14T10:16:09.295Z</time></trkpt><trkpt lat="42.0977474" lon="13.8714325"><ele>301.5</ele><time>2026-04-14T10:16:14.296Z</time></trkpt><trkpt lat="42.0977872" lon="13.8715041"><ele>301.3333333333333</ele><time>2026-04-14T10:16:19.359Z</time></trkpt><trkpt lat="42.0976729" lon="13.8714813"><ele>301.16666666666663</ele><time>2026-04-14T10:19:10.295Z</time></trkpt><trkpt lat="42.0977393" lon="13.8714943"><ele>301.0</ele><time>2026-04-14T10:22:06.295Z</time></trkpt><trkpt lat="42.0978041" lon="13.8715364"><ele>301.0</ele><time>2026-04-14T10:22:12.295Z</time></trkpt><trkpt lat="42.0978651" lon="13.8715761"><ele>301.0</ele><time>2026-04-14T10:22:18.388Z</time></trkpt><trkpt lat="42.0979607" lon="13.8715974"><ele>301.0</ele><time>2026-04-14T10:22:27.369Z</time></trkpt><trkpt lat="42.0980359" lon="13.8716017"><ele>301.0</ele><time>2026-04-14T10:22:33.309Z</time></trkpt><trkpt lat="42.0981142" lon="13.8716198"><ele>301.0</ele><time>2026-04-14T10:22:36.384Z</time></trkpt><trkpt lat="42.0981807" lon="13.8716408"><ele>301.0</ele><time>2026-04-14T10:22:41.295Z</time></trkpt><trkpt lat="42.098251" lon="13.8716033"><ele>300.66666666666663</ele><time>2026-04-14T10:22:45.343Z</time></trkpt><trkpt lat="42.0983329" lon="13.8715974"><ele>300.3333333333333</ele><time>2026-04-14T10:22:50.296Z</time></trkpt><trkpt lat="42.0983989" lon="13.8716107"><ele>300.0</ele><time>2026-04-14T10:22:53.384Z</time></trkpt><trkpt lat="42.0985059" lon="13.871637"><ele>299.6666666666667</ele><time>2026-04-14T10:23:03.296Z</time></trkpt><trkpt lat="42.0985696" lon="13.8716361"><ele>299.33333333333337</ele><time>2026-04-14T10:23:09.307Z</time></trkpt><trkpt lat="42.0986535" lon="13.871621"><ele>299.0</ele><time>2026-04-14T10:23:13.296Z</time></trkpt><trkpt lat="42.0987271" lon="13.8716192"><ele>299.0</ele><time>2026-04-14T10:23:16.366Z</time></trkpt><trkpt lat="42.0987944" lon="13.8716259"><ele>299.0</ele><time>2026-04-14T10:23:21.296Z</time></trkpt><trkpt lat="42.0988469" lon="13.8716835"><ele>299.0</ele><time>2026-04-14T10:23:24.351Z</time></trkpt><trkpt lat="42.0989335" lon="13.8717401"><ele>299.0</ele><time>2026-04-14T10:23:31.378Z</time></trkpt><trkpt lat="42.0989957" lon="13.8716836"><ele>299.0</ele><time>2026-04-14T10:23:35.317Z</time></trkpt><trkpt lat="42.0990425" lon="13.8716247"><ele>299.0</ele><time>2026-04-14T10:23:38.345Z</time></trkpt><trkpt lat="42.0991159" lon="13.8715932"><ele>299.0</ele><time>2026-04-14T10:23:42.295Z</time></trkpt><trkpt lat="42.099191" lon="13.8715605"><ele>298.57142857142856</ele><time>2026-04-14T10:23:46.295Z</time></trkpt><trkpt lat="42.0992583" lon="13.8715337"><ele>298.14285714285717</ele><time>2026-04-14T10:23:50.369Z</time></trkpt><trkpt lat="42.0993237" lon="13.8715066"><ele>297.7142857142857</ele><time>2026-04-14T10:23:54.298Z</time></trkpt><trkpt lat="42.0993929" lon="13.8714787"><ele>297.2857142857143</ele><time>2026-04-14T10:23:58.363Z</time></trkpt><trkpt lat="42.0994706" lon="13.8714573"><ele>296.85714285714283</ele><time>2026-04-14T10:24:03.296Z</time></trkpt><trkpt lat="42.0995362" lon="13.8714321"><ele>296.42857142857144</ele><time>2026-04-14T10:24:08.296Z</time></trkpt><trkpt lat="42.0996067" lon="13.8714033"><ele>296.0</ele><time>2026-04-14T10:24:13.295Z</time></trkpt><trkpt lat="42.0996751" lon="13.8713893"><ele>296.0</ele><time>2026-04-14T10:24:19.296Z</time></trkpt><trkpt lat="42.0997502" lon="13.8714065"><ele>296.0</ele><time>2026-04-14T10:24:23.295Z</time></trkpt><trkpt lat="42.0998187" lon="13.8714247"><ele>296.0</ele><time>2026-04-14T10:24:27.298Z</time></trkpt><trkpt lat="42.0998876" lon="13.87144"><ele>296.0</ele><time>2026-04-14T10:24:31.296Z</time></trkpt><trkpt lat="42.0999605" lon="13.8714537"><ele>296.0</ele><time>2026-04-14T10:24:39.374Z</time></trkpt><trkpt lat="42.1000204" lon="13.8714829"><ele>296.0</ele><time>2026-04-14T10:24:48.35Z</time></trkpt><trkpt lat="42.1000901" lon="13.8715274"><ele>296.0</ele><time>2026-04-14T10:24:50.295Z</time></trkpt><trkpt lat="42.100164" lon="13.8715527"><ele>296.0</ele><time>2026-04-14T10:24:55.296Z</time></trkpt><trkpt lat="42.1002316" lon="13.8715771"><ele>296.0</ele><time>2026-04-14T10:25:00.295Z</time></trkpt><trkpt lat="42.1002966" lon="13.8715947"><ele>296.0</ele><time>2026-04-14T10:25:04.371Z</time></trkpt><trkpt lat="42.1003631" lon="13.8716179"><ele>296.0</ele><time>2026-04-14T10:25:07.296Z</time></trkpt><trkpt lat="42.1004308" lon="13.8716484"><ele>296.0</ele><time>2026-04-14T10:25:11.388Z</time></trkpt><trkpt lat="42.100505" lon="13.8716744"><ele>296.0</ele><time>2026-04-14T10:25:17.296Z</time></trkpt><trkpt lat="42.100578" lon="13.8716983"><ele>296.0</ele><time>2026-04-14T10:25:21.374Z</time></trkpt><trkpt lat="42.1006524" lon="13.8717325"><ele>296.14285714285717</ele><time>2026-04-14T10:25:27.34Z</time></trkpt><trkpt lat="42.1007175" lon="13.871777"><ele>296.2857142857143</ele><time>2026-04-14T10:25:31.353Z</time></trkpt><trkpt lat="42.1007156" lon="13.8719112"><ele>296.42857142857144</ele><time>2026-04-14T10:25:35.218Z</time></trkpt><trkpt lat="42.1007234" lon="13.8719983"><ele>296.57142857142856</ele><time>2026-04-14T10:25:39.312Z</time></trkpt><trkpt lat="42.1007187" lon="13.8720938"><ele>296.7142857142857</ele><time>2026-04-14T10:25:47.296Z</time></trkpt><trkpt lat="42.1007183" lon="13.8721844"><ele>296.8571428571429</ele><time>2026-04-14T10:25:50.364Z</time></trkpt><trkpt lat="42.1007728" lon="13.8722445"><ele>297.0</ele><time>2026-04-14T10:25:55.295Z</time></trkpt><trkpt lat="42.1007714" lon="13.8723443"><ele>297.0</ele><time>2026-04-14T10:25:59.333Z</time></trkpt><trkpt lat="42.1008003" lon="13.872438"><ele>297.0</ele><time>2026-04-14T10:26:05.296Z</time></trkpt><trkpt lat="42.1008649" lon="13.8724731"><ele>297.0</ele><time>2026-04-14T10:26:11.296Z</time></trkpt><trkpt lat="42.1009543" lon="13.8724898"><ele>297.0</ele><time>2026-04-14T10:26:33.296Z</time></trkpt><trkpt lat="42.1010118" lon="13.8725323"><ele>297.0</ele><time>2026-04-14T10:26:37.385Z</time></trkpt><trkpt lat="42.1010792" lon="13.8725827"><ele>297.0</ele><time>2026-04-14T10:26:43.215Z</time></trkpt><trkpt lat="42.1011523" lon="13.8726185"><ele>298.0</ele><time>2026-04-14T10:26:48.368Z</time></trkpt><trkpt lat="42.1012188" lon="13.8726496"><ele>299.0</ele><time>2026-04-14T10:26:52.223Z</time></trkpt><trkpt lat="42.1012753" lon="13.872717"><ele>300.0</ele><time>2026-04-14T10:26:55.296Z</time></trkpt><trkpt lat="42.1013305" lon="13.872791"><ele>301.0</ele><time>2026-04-14T10:26:59.295Z</time></trkpt><trkpt lat="42.1013868" lon="13.8728402"><ele>302.0</ele><time>2026-04-14T10:27:06.295Z</time></trkpt><trkpt lat="42.101451" lon="13.8728906"><ele>303.0</ele><time>2026-04-14T10:27:13.346Z</time></trkpt><trkpt lat="42.101504" lon="13.8729507"><ele>304.0</ele><time>2026-04-14T10:27:16.356Z</time></trkpt><trkpt lat="42.1015686" lon="13.8730178"><ele>303.2857142857143</ele><time>2026-04-14T10:27:21.348Z</time></trkpt><trkpt lat="42.1016164" lon="13.8730779"><ele>302.5714285714286</ele><time>2026-04-14T10:27:30.345Z</time></trkpt><trkpt lat="42.1016668" lon="13.8731328"><ele>301.8571428571429</ele><time>2026-04-14T10:27:39.349Z</time></trkpt><trkpt lat="42.1017088" lon="13.8731964"><ele>301.1428571428571</ele><time>2026-04-14T10:27:43.306Z</time></trkpt><trkpt lat="42.1017462" lon="13.8732848"><ele>300.42857142857144</ele><time>2026-04-14T10:27:47.296Z</time></trkpt><trkpt lat="42.1017796" lon="13.8733699"><ele>299.7142857142857</ele><time>2026-04-14T10:27:52.299Z</time></trkpt><trkpt lat="42.1018055" lon="13.8734643"><ele>299.0</ele><time>2026-04-14T10:27:58.296Z</time></trkpt><trkpt lat="42.1018497" lon="13.8735428"><ele>299.0</ele><time>2026-04-14T10:28:01.296Z</time></trkpt><trkpt lat="42.1019011" lon="13.8735956"><ele>299.0</ele><time>2026-04-14T10:28:04.368Z</time></trkpt><trkpt lat="42.1019616" lon="13.8736605"><ele>299.0</ele><time>2026-04-14T10:28:09.351Z</time></trkpt><trkpt lat="42.1020185" lon="13.8737371"><ele>299.0</ele><time>2026-04-14T10:28:17.241Z</time></trkpt><trkpt lat="42.1020571" lon="13.8738136"><ele>299.0</ele><time>2026-04-14T10:28:23.296Z</time></trkpt><trkpt lat="42.1020811" lon="13.8739274"><ele>299.0</ele><time>2026-04-14T10:28:27.736Z</time></trkpt><trkpt lat="42.1021079" lon="13.8740435"><ele>299.0</ele><time>2026-04-14T10:28:32.35Z</time></trkpt><trkpt lat="42.1022036" lon="13.8741003"><ele>299.0</ele><time>2026-04-14T10:28:40.353Z</time></trkpt><trkpt lat="42.1022674" lon="13.8741314"><ele>299.0</ele><time>2026-04-14T10:28:45.296Z</time></trkpt><trkpt lat="42.1023177" lon="13.8741942"><ele>299.0</ele><time>2026-04-14T10:28:48.326Z</time></trkpt><trkpt lat="42.1023742" lon="13.8742363"><ele>299.0</ele><time>2026-04-14T10:28:51.296Z</time></trkpt><trkpt lat="42.1024263" lon="13.8742993"><ele>299.0</ele><time>2026-04-14T10:28:55.295Z</time></trkpt><trkpt lat="42.102482" lon="13.8743419"><ele>299.0</ele><time>2026-04-14T10:29:00.295Z</time></trkpt><trkpt lat="42.1025442" lon="13.8743909"><ele>298.42857142857144</ele><time>2026-04-14T10:29:04.373Z</time></trkpt><trkpt lat="42.1026044" lon="13.874456"><ele>297.8571428571429</ele><time>2026-04-14T10:29:11.366Z</time></trkpt><trkpt lat="42.1026613" lon="13.8745048"><ele>297.28571428571433</ele><time>2026-04-14T10:29:17.253Z</time></trkpt><trkpt lat="42.1027133" lon="13.8745563"><ele>296.7142857142857</ele><time>2026-04-14T10:29:23.818Z</time></trkpt><trkpt lat="42.1027653" lon="13.8746053"><ele>296.14285714285717</ele><time>2026-04-14T10:29:29.233Z</time></trkpt><trkpt lat="42.1028267" lon="13.8746637"><ele>295.5714285714286</ele><time>2026-04-14T10:29:35.326Z</time></trkpt><trkpt lat="42.1028861" lon="13.8747112"><ele>295.0</ele><time>2026-04-14T10:29:40.932Z</time></trkpt><trkpt lat="42.1029048" lon="13.8747986"><ele>295.0</ele><time>2026-04-14T10:29:47.337Z</time></trkpt><trkpt lat="42.1028479" lon="13.8748524"><ele>295.0</ele><time>2026-04-14T10:29:51.372Z</time></trkpt></trkseg></trk></gpx>